<?xml version="1.0" encoding="UTF-8" standalone="no" ?>
<gpx xmlns="http://www.topografix.com/GPX/1/1" xmlns:xsi="http://www.w3.org/2001/XMLSchema-instance" xsi:schemaLocation="http://www.topografix.com/GPX/1/1 http://www.topografix.com/GPX/1/1/gpx.xsd" version="1.1" creator="VisuGPX - https://www.visugpx.com">
  <metadata>
    <name>LesSables_RocStJeanLaChaume_19.3km</name>
    <desc><![CDATA[WE le 21/01/2016. 19.3km + LaChaume-LacTanchet par le port et Ile Penotte 20.4km]]></desc>
  </metadata>
  <trk>
    <name><![CDATA[2016-01-23 10:08]]></name>
    <desc><![CDATA[<h1>OruxMaps</h1><br /><hr align="center" width="480" style="height: 2px; width: 517px"/><h2>Nom: 2016-01-23 10:08</h2><br /><p>Temps de départ: 01/23/2016 10:06</p><p>Temps d'arrivée: 01/23/2016 17:07</p><p>Distance: 19,3km (07:01)</p><p>Temps déplacement: 04:44</p><p>Vitesse moyenne: 2,7km/h</p><p>Vitesse moyenne: 4,1km/h</p><p>Vitess Max.: 10km/h</p><p>Altitude minimale: -4m</p><p>Altitude maximale: 29m</p><p>Vitesse d'élévation: 152,9m/h</p><p>Vitesse de descente: -127,3m/h</p><p>Gain Altitude: 322m</p><p>Perte Altitude: -324m</p><p>Temps d'élévation: 02:06</p><p>Temps de descente: 02:33</p><hr align="center" width="480" style="height: 2px; width: 517px"/>]]></desc>
    <extensions>
      <line xmlns="http://www.topografix.com/GPX/gpx_style/0/2">
        <color>008000</color>
        <width>4</width>
      </line>
    </extensions>
    <trkseg>
      <trkpt lat="46.46676" lon="-1.73582">
        <ele>12.54</ele>
        <time>2016-01-23T09:06:20Z</time>
      </trkpt>
      <trkpt lat="46.46694" lon="-1.73584">
        <ele>12.76</ele>
        <time>2016-01-23T09:06:35Z</time>
      </trkpt>
      <trkpt lat="46.46706" lon="-1.73605">
        <ele>11.64</ele>
        <time>2016-01-23T09:06:48Z</time>
      </trkpt>
      <trkpt lat="46.46718" lon="-1.73626">
        <ele>10.54</ele>
        <time>2016-01-23T09:07:01Z</time>
      </trkpt>
      <trkpt lat="46.46731" lon="-1.73645">
        <ele>10.37</ele>
        <time>2016-01-23T09:07:14Z</time>
      </trkpt>
      <trkpt lat="46.46743" lon="-1.73664">
        <ele>9.31</ele>
        <time>2016-01-23T09:07:27Z</time>
      </trkpt>
      <trkpt lat="46.46757" lon="-1.73681">
        <ele>9.41</ele>
        <time>2016-01-23T09:07:41Z</time>
      </trkpt>
      <trkpt lat="46.46776" lon="-1.73686">
        <ele>7.41</ele>
        <time>2016-01-23T09:07:54Z</time>
      </trkpt>
      <trkpt lat="46.46796" lon="-1.73685">
        <ele>6.69</ele>
        <time>2016-01-23T09:08:07Z</time>
      </trkpt>
      <trkpt lat="46.46814" lon="-1.73689">
        <ele>6.11</ele>
        <time>2016-01-23T09:08:20Z</time>
      </trkpt>
      <trkpt lat="46.4683" lon="-1.73704">
        <ele>5.29</ele>
        <time>2016-01-23T09:08:33Z</time>
      </trkpt>
      <trkpt lat="46.46841" lon="-1.73725">
        <ele>5.1</ele>
        <time>2016-01-23T09:08:46Z</time>
      </trkpt>
      <trkpt lat="46.46848" lon="-1.7375">
        <ele>5.64</ele>
        <time>2016-01-23T09:09:02Z</time>
      </trkpt>
      <trkpt lat="46.46847" lon="-1.73777">
        <ele>6.34</ele>
        <time>2016-01-23T09:09:17Z</time>
      </trkpt>
      <trkpt lat="46.46841" lon="-1.73802">
        <ele>6.01</ele>
        <time>2016-01-23T09:09:32Z</time>
      </trkpt>
      <trkpt lat="46.46836" lon="-1.73829">
        <ele>6.49</ele>
        <time>2016-01-23T09:09:48Z</time>
      </trkpt>
      <trkpt lat="46.46831" lon="-1.73854">
        <ele>6.63</ele>
        <time>2016-01-23T09:10:03Z</time>
      </trkpt>
      <trkpt lat="46.4683" lon="-1.73881">
        <ele>6.43</ele>
        <time>2016-01-23T09:10:19Z</time>
      </trkpt>
      <trkpt lat="46.46836" lon="-1.73907">
        <ele>6.61</ele>
        <time>2016-01-23T09:10:35Z</time>
      </trkpt>
      <trkpt lat="46.46843" lon="-1.73931">
        <ele>8.67</ele>
        <time>2016-01-23T09:10:50Z</time>
      </trkpt>
      <trkpt lat="46.46847" lon="-1.73958">
        <ele>9.72</ele>
        <time>2016-01-23T09:11:07Z</time>
      </trkpt>
      <trkpt lat="46.46849" lon="-1.73985">
        <ele>9.92</ele>
        <time>2016-01-23T09:11:23Z</time>
      </trkpt>
      <trkpt lat="46.46849" lon="-1.74012">
        <ele>9.53</ele>
        <time>2016-01-23T09:11:38Z</time>
      </trkpt>
      <trkpt lat="46.46851" lon="-1.74038">
        <ele>10.08</ele>
        <time>2016-01-23T09:11:52Z</time>
      </trkpt>
      <trkpt lat="46.46856" lon="-1.74064">
        <ele>10.15</ele>
        <time>2016-01-23T09:12:06Z</time>
      </trkpt>
      <trkpt lat="46.46864" lon="-1.74088">
        <ele>11.06</ele>
        <time>2016-01-23T09:12:21Z</time>
      </trkpt>
      <trkpt lat="46.46874" lon="-1.74111">
        <ele>11.57</ele>
        <time>2016-01-23T09:12:37Z</time>
      </trkpt>
      <trkpt lat="46.46888" lon="-1.74131">
        <ele>11.71</ele>
        <time>2016-01-23T09:12:52Z</time>
      </trkpt>
      <trkpt lat="46.46901" lon="-1.74149">
        <ele>12.51</ele>
        <time>2016-01-23T09:13:08Z</time>
      </trkpt>
      <trkpt lat="46.46917" lon="-1.74162">
        <ele>12.17</ele>
        <time>2016-01-23T09:13:24Z</time>
      </trkpt>
      <trkpt lat="46.46931" lon="-1.74179">
        <ele>11.04</ele>
        <time>2016-01-23T09:13:41Z</time>
      </trkpt>
      <trkpt lat="46.46947" lon="-1.74192">
        <ele>10.3</ele>
        <time>2016-01-23T09:13:58Z</time>
      </trkpt>
      <trkpt lat="46.46964" lon="-1.74203">
        <ele>9.87</ele>
        <time>2016-01-23T09:14:16Z</time>
      </trkpt>
      <trkpt lat="46.46979" lon="-1.74221">
        <ele>9.27</ele>
        <time>2016-01-23T09:14:32Z</time>
      </trkpt>
      <trkpt lat="46.46988" lon="-1.74243">
        <ele>9.05</ele>
        <time>2016-01-23T09:14:48Z</time>
      </trkpt>
      <trkpt lat="46.47" lon="-1.74263">
        <ele>8.77</ele>
        <time>2016-01-23T09:15:05Z</time>
      </trkpt>
      <trkpt lat="46.47015" lon="-1.7428">
        <ele>10.31</ele>
        <time>2016-01-23T09:15:21Z</time>
      </trkpt>
      <trkpt lat="46.47027" lon="-1.74301">
        <ele>10.91</ele>
        <time>2016-01-23T09:15:37Z</time>
      </trkpt>
      <trkpt lat="46.47037" lon="-1.74324">
        <ele>10.04</ele>
        <time>2016-01-23T09:15:53Z</time>
      </trkpt>
      <trkpt lat="46.47049" lon="-1.74345">
        <ele>10.16</ele>
        <time>2016-01-23T09:16:07Z</time>
      </trkpt>
      <trkpt lat="46.47057" lon="-1.74369">
        <ele>9.11</ele>
        <time>2016-01-23T09:16:23Z</time>
      </trkpt>
      <trkpt lat="46.47071" lon="-1.74387">
        <ele>8.96</ele>
        <time>2016-01-23T09:16:39Z</time>
      </trkpt>
      <trkpt lat="46.47089" lon="-1.74397">
        <ele>9.97</ele>
        <time>2016-01-23T09:16:55Z</time>
      </trkpt>
      <trkpt lat="46.47103" lon="-1.74415">
        <ele>10.68</ele>
        <time>2016-01-23T09:17:12Z</time>
      </trkpt>
      <trkpt lat="46.4711" lon="-1.7444">
        <ele>11.05</ele>
        <time>2016-01-23T09:17:28Z</time>
      </trkpt>
      <trkpt lat="46.4712" lon="-1.74464">
        <ele>11.72</ele>
        <time>2016-01-23T09:17:45Z</time>
      </trkpt>
      <trkpt lat="46.47131" lon="-1.74485">
        <ele>10.94</ele>
        <time>2016-01-23T09:18:02Z</time>
      </trkpt>
      <trkpt lat="46.47141" lon="-1.74509">
        <ele>10.03</ele>
        <time>2016-01-23T09:18:20Z</time>
      </trkpt>
      <trkpt lat="46.47145" lon="-1.74535">
        <ele>7.33</ele>
        <time>2016-01-23T09:18:40Z</time>
      </trkpt>
      <trkpt lat="46.47157" lon="-1.74555">
        <ele>7.47</ele>
        <time>2016-01-23T09:18:56Z</time>
      </trkpt>
      <trkpt lat="46.4717" lon="-1.74575">
        <ele>7.1</ele>
        <time>2016-01-23T09:19:14Z</time>
      </trkpt>
      <trkpt lat="46.47179" lon="-1.74599">
        <ele>6.64</ele>
        <time>2016-01-23T09:19:32Z</time>
      </trkpt>
      <trkpt lat="46.47195" lon="-1.74612">
        <ele>7.28</ele>
        <time>2016-01-23T09:19:52Z</time>
      </trkpt>
      <trkpt lat="46.47208" lon="-1.74632">
        <ele>7.85</ele>
        <time>2016-01-23T09:20:09Z</time>
      </trkpt>
      <trkpt lat="46.47216" lon="-1.74657">
        <ele>8.35</ele>
        <time>2016-01-23T09:20:27Z</time>
      </trkpt>
      <trkpt lat="46.47216" lon="-1.74683">
        <ele>6.03</ele>
        <time>2016-01-23T09:20:57Z</time>
      </trkpt>
      <trkpt lat="46.47233" lon="-1.74693">
        <ele>5.66</ele>
        <time>2016-01-23T09:22:31Z</time>
      </trkpt>
      <trkpt lat="46.47248" lon="-1.74708">
        <ele>7.31</ele>
        <time>2016-01-23T09:22:58Z</time>
      </trkpt>
      <trkpt lat="46.47263" lon="-1.74726">
        <ele>7.75</ele>
        <time>2016-01-23T09:23:17Z</time>
      </trkpt>
      <trkpt lat="46.47276" lon="-1.74745">
        <ele>8.3</ele>
        <time>2016-01-23T09:23:33Z</time>
      </trkpt>
      <trkpt lat="46.47294" lon="-1.74751">
        <ele>8</ele>
        <time>2016-01-23T09:23:52Z</time>
      </trkpt>
      <trkpt lat="46.47311" lon="-1.74765">
        <ele>8.32</ele>
        <time>2016-01-23T09:24:09Z</time>
      </trkpt>
      <trkpt lat="46.4732" lon="-1.74789">
        <ele>7.33</ele>
        <time>2016-01-23T09:24:30Z</time>
      </trkpt>
      <trkpt lat="46.47334" lon="-1.74807">
        <ele>7.41</ele>
        <time>2016-01-23T09:24:45Z</time>
      </trkpt>
      <trkpt lat="46.47341" lon="-1.74832">
        <ele>7.75</ele>
        <time>2016-01-23T09:25:02Z</time>
      </trkpt>
      <trkpt lat="46.47339" lon="-1.7486">
        <ele>6.66</ele>
        <time>2016-01-23T09:26:47Z</time>
      </trkpt>
      <trkpt lat="46.47333" lon="-1.74885">
        <ele>7.28</ele>
        <time>2016-01-23T09:27:09Z</time>
      </trkpt>
      <trkpt lat="46.47331" lon="-1.74912">
        <ele>6.79</ele>
        <time>2016-01-23T09:28:18Z</time>
      </trkpt>
      <trkpt lat="46.47339" lon="-1.74937">
        <ele>7.6</ele>
        <time>2016-01-23T09:28:36Z</time>
      </trkpt>
      <trkpt lat="46.47342" lon="-1.74963">
        <ele>7.19</ele>
        <time>2016-01-23T09:28:54Z</time>
      </trkpt>
      <trkpt lat="46.47349" lon="-1.74988">
        <ele>7.41</ele>
        <time>2016-01-23T09:29:11Z</time>
      </trkpt>
      <trkpt lat="46.47362" lon="-1.75007">
        <ele>8.61</ele>
        <time>2016-01-23T09:29:28Z</time>
      </trkpt>
      <trkpt lat="46.47374" lon="-1.75028">
        <ele>7.88</ele>
        <time>2016-01-23T09:29:44Z</time>
      </trkpt>
      <trkpt lat="46.47374" lon="-1.75055">
        <ele>7.68</ele>
        <time>2016-01-23T09:30:00Z</time>
      </trkpt>
      <trkpt lat="46.47377" lon="-1.75081">
        <ele>8.04</ele>
        <time>2016-01-23T09:30:17Z</time>
      </trkpt>
      <trkpt lat="46.47387" lon="-1.75105">
        <ele>8.82</ele>
        <time>2016-01-23T09:30:33Z</time>
      </trkpt>
      <trkpt lat="46.47399" lon="-1.75125">
        <ele>9.45</ele>
        <time>2016-01-23T09:30:49Z</time>
      </trkpt>
      <trkpt lat="46.47411" lon="-1.75146">
        <ele>9.99</ele>
        <time>2016-01-23T09:31:06Z</time>
      </trkpt>
      <trkpt lat="46.47422" lon="-1.75166">
        <ele>10.59</ele>
        <time>2016-01-23T09:31:23Z</time>
      </trkpt>
      <trkpt lat="46.47431" lon="-1.75189">
        <ele>10.31</ele>
        <time>2016-01-23T09:31:40Z</time>
      </trkpt>
      <trkpt lat="46.47434" lon="-1.75215">
        <ele>7.49</ele>
        <time>2016-01-23T09:32:08Z</time>
      </trkpt>
      <trkpt lat="46.47438" lon="-1.7524">
        <ele>7.85</ele>
        <time>2016-01-23T09:32:41Z</time>
      </trkpt>
      <trkpt lat="46.47445" lon="-1.75265">
        <ele>8.98</ele>
        <time>2016-01-23T09:32:59Z</time>
      </trkpt>
      <trkpt lat="46.47448" lon="-1.75292">
        <ele>7.75</ele>
        <time>2016-01-23T09:33:17Z</time>
      </trkpt>
      <trkpt lat="46.47451" lon="-1.75319">
        <ele>7.92</ele>
        <time>2016-01-23T09:33:34Z</time>
      </trkpt>
      <trkpt lat="46.47461" lon="-1.75341">
        <ele>6.39</ele>
        <time>2016-01-23T09:33:51Z</time>
      </trkpt>
      <trkpt lat="46.4747" lon="-1.75365">
        <ele>5.7</ele>
        <time>2016-01-23T09:34:07Z</time>
      </trkpt>
      <trkpt lat="46.47475" lon="-1.75391">
        <ele>6.18</ele>
        <time>2016-01-23T09:34:23Z</time>
      </trkpt>
      <trkpt lat="46.47477" lon="-1.75419">
        <ele>7.55</ele>
        <time>2016-01-23T09:34:39Z</time>
      </trkpt>
      <trkpt lat="46.47479" lon="-1.75445">
        <ele>7.71</ele>
        <time>2016-01-23T09:34:54Z</time>
      </trkpt>
      <trkpt lat="46.47483" lon="-1.7547">
        <ele>8.78</ele>
        <time>2016-01-23T09:35:10Z</time>
      </trkpt>
      <trkpt lat="46.47489" lon="-1.75496">
        <ele>8.27</ele>
        <time>2016-01-23T09:35:25Z</time>
      </trkpt>
      <trkpt lat="46.47496" lon="-1.75521">
        <ele>8.01</ele>
        <time>2016-01-23T09:35:41Z</time>
      </trkpt>
      <trkpt lat="46.47504" lon="-1.75547">
        <ele>8.67</ele>
        <time>2016-01-23T09:35:57Z</time>
      </trkpt>
      <trkpt lat="46.47509" lon="-1.75572">
        <ele>8.07</ele>
        <time>2016-01-23T09:36:12Z</time>
      </trkpt>
      <trkpt lat="46.47516" lon="-1.75596">
        <ele>7.07</ele>
        <time>2016-01-23T09:36:27Z</time>
      </trkpt>
      <trkpt lat="46.47528" lon="-1.75618">
        <ele>6.36</ele>
        <time>2016-01-23T09:36:44Z</time>
      </trkpt>
      <trkpt lat="46.4754" lon="-1.75637">
        <ele>6.7</ele>
        <time>2016-01-23T09:36:59Z</time>
      </trkpt>
      <trkpt lat="46.47553" lon="-1.75656">
        <ele>7.47</ele>
        <time>2016-01-23T09:37:14Z</time>
      </trkpt>
      <trkpt lat="46.47568" lon="-1.75674">
        <ele>9.11</ele>
        <time>2016-01-23T09:37:30Z</time>
      </trkpt>
      <trkpt lat="46.47582" lon="-1.75692">
        <ele>9.53</ele>
        <time>2016-01-23T09:37:46Z</time>
      </trkpt>
      <trkpt lat="46.47597" lon="-1.7571">
        <ele>9.4</ele>
        <time>2016-01-23T09:38:01Z</time>
      </trkpt>
      <trkpt lat="46.4761" lon="-1.75729">
        <ele>10.2</ele>
        <time>2016-01-23T09:38:18Z</time>
      </trkpt>
      <trkpt lat="46.47622" lon="-1.75748">
        <ele>10.53</ele>
        <time>2016-01-23T09:38:33Z</time>
      </trkpt>
      <trkpt lat="46.47637" lon="-1.75764">
        <ele>9.66</ele>
        <time>2016-01-23T09:38:48Z</time>
      </trkpt>
      <trkpt lat="46.47654" lon="-1.75777">
        <ele>8.68</ele>
        <time>2016-01-23T09:39:03Z</time>
      </trkpt>
      <trkpt lat="46.47669" lon="-1.75792">
        <ele>8.64</ele>
        <time>2016-01-23T09:39:18Z</time>
      </trkpt>
      <trkpt lat="46.47683" lon="-1.75809">
        <ele>8.87</ele>
        <time>2016-01-23T09:39:34Z</time>
      </trkpt>
      <trkpt lat="46.47696" lon="-1.75827">
        <ele>8.44</ele>
        <time>2016-01-23T09:39:49Z</time>
      </trkpt>
      <trkpt lat="46.47709" lon="-1.75848">
        <ele>7.87</ele>
        <time>2016-01-23T09:40:05Z</time>
      </trkpt>
      <trkpt lat="46.47722" lon="-1.75868">
        <ele>6.63</ele>
        <time>2016-01-23T09:40:21Z</time>
      </trkpt>
      <trkpt lat="46.47734" lon="-1.75887">
        <ele>6.81</ele>
        <time>2016-01-23T09:40:38Z</time>
      </trkpt>
      <trkpt lat="46.47746" lon="-1.75906">
        <ele>7.44</ele>
        <time>2016-01-23T09:40:54Z</time>
      </trkpt>
      <trkpt lat="46.47758" lon="-1.75929">
        <ele>7.52</ele>
        <time>2016-01-23T09:41:10Z</time>
      </trkpt>
      <trkpt lat="46.47766" lon="-1.75954">
        <ele>7.43</ele>
        <time>2016-01-23T09:41:26Z</time>
      </trkpt>
      <trkpt lat="46.47778" lon="-1.75973">
        <ele>8.12</ele>
        <time>2016-01-23T09:41:42Z</time>
      </trkpt>
      <trkpt lat="46.47791" lon="-1.75992">
        <ele>7.63</ele>
        <time>2016-01-23T09:42:20Z</time>
      </trkpt>
      <trkpt lat="46.47806" lon="-1.76007">
        <ele>7.53</ele>
        <time>2016-01-23T09:42:38Z</time>
      </trkpt>
      <trkpt lat="46.47821" lon="-1.76022">
        <ele>7.7</ele>
        <time>2016-01-23T09:42:54Z</time>
      </trkpt>
      <trkpt lat="46.47839" lon="-1.7603">
        <ele>7.27</ele>
        <time>2016-01-23T09:44:16Z</time>
      </trkpt>
      <trkpt lat="46.47857" lon="-1.76025">
        <ele>7.71</ele>
        <time>2016-01-23T09:44:35Z</time>
      </trkpt>
      <trkpt lat="46.47874" lon="-1.76015">
        <ele>9.33</ele>
        <time>2016-01-23T09:45:05Z</time>
      </trkpt>
      <trkpt lat="46.47892" lon="-1.7602">
        <ele>14.58</ele>
        <time>2016-01-23T09:45:20Z</time>
      </trkpt>
      <trkpt lat="46.4791" lon="-1.76025">
        <ele>10.79</ele>
        <time>2016-01-23T09:45:37Z</time>
      </trkpt>
      <trkpt lat="46.47929" lon="-1.7603">
        <ele>12.12</ele>
        <time>2016-01-23T09:45:53Z</time>
      </trkpt>
      <trkpt lat="46.47947" lon="-1.76034">
        <ele>12.59</ele>
        <time>2016-01-23T09:46:09Z</time>
      </trkpt>
      <trkpt lat="46.47965" lon="-1.76037">
        <ele>13.01</ele>
        <time>2016-01-23T09:46:24Z</time>
      </trkpt>
      <trkpt lat="46.47984" lon="-1.76036">
        <ele>11.57</ele>
        <time>2016-01-23T09:46:46Z</time>
      </trkpt>
      <trkpt lat="46.48002" lon="-1.76036">
        <ele>9.28</ele>
        <time>2016-01-23T09:47:03Z</time>
      </trkpt>
      <trkpt lat="46.4802" lon="-1.76037">
        <ele>9.23</ele>
        <time>2016-01-23T09:47:19Z</time>
      </trkpt>
      <trkpt lat="46.48038" lon="-1.7604">
        <ele>7.65</ele>
        <time>2016-01-23T09:47:37Z</time>
      </trkpt>
      <trkpt lat="46.48057" lon="-1.76049">
        <ele>8.82</ele>
        <time>2016-01-23T09:47:55Z</time>
      </trkpt>
      <trkpt lat="46.48065" lon="-1.76073">
        <ele>7.69</ele>
        <time>2016-01-23T09:49:36Z</time>
      </trkpt>
      <trkpt lat="46.4807" lon="-1.76098">
        <ele>7.56</ele>
        <time>2016-01-23T09:49:52Z</time>
      </trkpt>
      <trkpt lat="46.48084" lon="-1.76116">
        <ele>6.05</ele>
        <time>2016-01-23T09:50:41Z</time>
      </trkpt>
      <trkpt lat="46.481" lon="-1.76128">
        <ele>6.75</ele>
        <time>2016-01-23T09:51:00Z</time>
      </trkpt>
      <trkpt lat="46.48116" lon="-1.76143">
        <ele>6.79</ele>
        <time>2016-01-23T09:51:21Z</time>
      </trkpt>
      <trkpt lat="46.48131" lon="-1.7616">
        <ele>9.21</ele>
        <time>2016-01-23T09:51:37Z</time>
      </trkpt>
      <trkpt lat="46.48146" lon="-1.76175">
        <ele>7.24</ele>
        <time>2016-01-23T09:51:54Z</time>
      </trkpt>
      <trkpt lat="46.4816" lon="-1.76193">
        <ele>5.17</ele>
        <time>2016-01-23T09:52:10Z</time>
      </trkpt>
      <trkpt lat="46.48175" lon="-1.7621">
        <ele>6.47</ele>
        <time>2016-01-23T09:52:24Z</time>
      </trkpt>
      <trkpt lat="46.48189" lon="-1.76228">
        <ele>7.29</ele>
        <time>2016-01-23T09:52:37Z</time>
      </trkpt>
      <trkpt lat="46.48204" lon="-1.76244">
        <ele>8.17</ele>
        <time>2016-01-23T09:52:50Z</time>
      </trkpt>
      <trkpt lat="46.48219" lon="-1.76261">
        <ele>8.07</ele>
        <time>2016-01-23T09:53:04Z</time>
      </trkpt>
      <trkpt lat="46.48233" lon="-1.76279">
        <ele>7.95</ele>
        <time>2016-01-23T09:53:17Z</time>
      </trkpt>
      <trkpt lat="46.48248" lon="-1.76294">
        <ele>8.48</ele>
        <time>2016-01-23T09:53:30Z</time>
      </trkpt>
      <trkpt lat="46.48262" lon="-1.76312">
        <ele>8.77</ele>
        <time>2016-01-23T09:53:44Z</time>
      </trkpt>
      <trkpt lat="46.48276" lon="-1.7633">
        <ele>8.66</ele>
        <time>2016-01-23T09:53:58Z</time>
      </trkpt>
      <trkpt lat="46.48291" lon="-1.76347">
        <ele>10.13</ele>
        <time>2016-01-23T09:54:12Z</time>
      </trkpt>
      <trkpt lat="46.48305" lon="-1.76364">
        <ele>9.47</ele>
        <time>2016-01-23T09:54:28Z</time>
      </trkpt>
      <trkpt lat="46.48318" lon="-1.76382">
        <ele>7.63</ele>
        <time>2016-01-23T09:54:44Z</time>
      </trkpt>
      <trkpt lat="46.48333" lon="-1.76398">
        <ele>5.76</ele>
        <time>2016-01-23T09:55:00Z</time>
      </trkpt>
      <trkpt lat="46.48347" lon="-1.76415">
        <ele>5.55</ele>
        <time>2016-01-23T09:55:16Z</time>
      </trkpt>
      <trkpt lat="46.48362" lon="-1.76431">
        <ele>4.57</ele>
        <time>2016-01-23T09:55:32Z</time>
      </trkpt>
      <trkpt lat="46.48376" lon="-1.76449">
        <ele>5.14</ele>
        <time>2016-01-23T09:55:48Z</time>
      </trkpt>
      <trkpt lat="46.4839" lon="-1.76466">
        <ele>6.16</ele>
        <time>2016-01-23T09:56:03Z</time>
      </trkpt>
      <trkpt lat="46.48405" lon="-1.76482">
        <ele>7.54</ele>
        <time>2016-01-23T09:56:18Z</time>
      </trkpt>
      <trkpt lat="46.48419" lon="-1.76499">
        <ele>7.31</ele>
        <time>2016-01-23T09:56:35Z</time>
      </trkpt>
      <trkpt lat="46.48434" lon="-1.76515">
        <ele>8.15</ele>
        <time>2016-01-23T09:56:51Z</time>
      </trkpt>
      <trkpt lat="46.48451" lon="-1.76522">
        <ele>8.98</ele>
        <time>2016-01-23T09:57:24Z</time>
      </trkpt>
      <trkpt lat="46.48461" lon="-1.76501">
        <ele>9.82</ele>
        <time>2016-01-23T09:57:39Z</time>
      </trkpt>
      <trkpt lat="46.48464" lon="-1.76474">
        <ele>7.97</ele>
        <time>2016-01-23T09:58:01Z</time>
      </trkpt>
      <trkpt lat="46.48467" lon="-1.76447">
        <ele>6.3</ele>
        <time>2016-01-23T09:58:20Z</time>
      </trkpt>
      <trkpt lat="46.48472" lon="-1.76422">
        <ele>6.5</ele>
        <time>2016-01-23T09:58:35Z</time>
      </trkpt>
      <trkpt lat="46.48478" lon="-1.76397">
        <ele>7.76</ele>
        <time>2016-01-23T09:58:50Z</time>
      </trkpt>
      <trkpt lat="46.48484" lon="-1.76372">
        <ele>8.13</ele>
        <time>2016-01-23T09:59:06Z</time>
      </trkpt>
      <trkpt lat="46.48492" lon="-1.76348">
        <ele>8.84</ele>
        <time>2016-01-23T09:59:23Z</time>
      </trkpt>
      <trkpt lat="46.48497" lon="-1.76322">
        <ele>8.68</ele>
        <time>2016-01-23T09:59:43Z</time>
      </trkpt>
      <trkpt lat="46.48505" lon="-1.76297">
        <ele>10.71</ele>
        <time>2016-01-23T10:00:03Z</time>
      </trkpt>
      <trkpt lat="46.48522" lon="-1.76287">
        <ele>8.95</ele>
        <time>2016-01-23T10:00:36Z</time>
      </trkpt>
      <trkpt lat="46.4854" lon="-1.76294">
        <ele>9.36</ele>
        <time>2016-01-23T10:00:54Z</time>
      </trkpt>
      <trkpt lat="46.48567" lon="-1.76277">
        <ele>11.36</ele>
        <time>2016-01-23T10:01:29Z</time>
      </trkpt>
      <trkpt lat="46.48583" lon="-1.76266">
        <ele>13.46</ele>
        <time>2016-01-23T10:01:44Z</time>
      </trkpt>
      <trkpt lat="46.48601" lon="-1.76256">
        <ele>15.96</ele>
        <time>2016-01-23T10:02:00Z</time>
      </trkpt>
      <trkpt lat="46.48622" lon="-1.76245">
        <ele>16.66</ele>
        <time>2016-01-23T10:02:26Z</time>
      </trkpt>
      <trkpt lat="46.4864" lon="-1.76237">
        <ele>18.16</ele>
        <time>2016-01-23T10:02:46Z</time>
      </trkpt>
      <trkpt lat="46.48657" lon="-1.76222">
        <ele>19.8</ele>
        <time>2016-01-23T10:03:11Z</time>
      </trkpt>
      <trkpt lat="46.48667" lon="-1.762">
        <ele>15.88</ele>
        <time>2016-01-23T10:03:28Z</time>
      </trkpt>
      <trkpt lat="46.48683" lon="-1.76214">
        <ele>16.54</ele>
        <time>2016-01-23T10:04:04Z</time>
      </trkpt>
      <trkpt lat="46.48699" lon="-1.76227">
        <ele>16.52</ele>
        <time>2016-01-23T10:04:29Z</time>
      </trkpt>
      <trkpt lat="46.48705" lon="-1.76252">
        <ele>16.41</ele>
        <time>2016-01-23T10:04:49Z</time>
      </trkpt>
      <trkpt lat="46.48713" lon="-1.76277">
        <ele>15.69</ele>
        <time>2016-01-23T10:05:08Z</time>
      </trkpt>
      <trkpt lat="46.48721" lon="-1.76303">
        <ele>14.73</ele>
        <time>2016-01-23T10:05:25Z</time>
      </trkpt>
      <trkpt lat="46.48729" lon="-1.76328">
        <ele>14.14</ele>
        <time>2016-01-23T10:05:42Z</time>
      </trkpt>
      <trkpt lat="46.48735" lon="-1.76353">
        <ele>15.24</ele>
        <time>2016-01-23T10:05:59Z</time>
      </trkpt>
      <trkpt lat="46.48741" lon="-1.76377">
        <ele>17.07</ele>
        <time>2016-01-23T10:06:15Z</time>
      </trkpt>
      <trkpt lat="46.48751" lon="-1.764">
        <ele>18.18</ele>
        <time>2016-01-23T10:06:28Z</time>
      </trkpt>
      <trkpt lat="46.48758" lon="-1.76426">
        <ele>20.36</ele>
        <time>2016-01-23T10:06:42Z</time>
      </trkpt>
      <trkpt lat="46.48761" lon="-1.76451">
        <ele>20.91</ele>
        <time>2016-01-23T10:07:00Z</time>
      </trkpt>
      <trkpt lat="46.48773" lon="-1.76475">
        <ele>20.57</ele>
        <time>2016-01-23T10:07:14Z</time>
      </trkpt>
      <trkpt lat="46.48791" lon="-1.76484">
        <ele>19.7</ele>
        <time>2016-01-23T10:07:28Z</time>
      </trkpt>
      <trkpt lat="46.48807" lon="-1.76496">
        <ele>19.59</ele>
        <time>2016-01-23T10:07:47Z</time>
      </trkpt>
      <trkpt lat="46.48821" lon="-1.76515">
        <ele>17.82</ele>
        <time>2016-01-23T10:08:05Z</time>
      </trkpt>
      <trkpt lat="46.48822" lon="-1.76542">
        <ele>19.42</ele>
        <time>2016-01-23T10:08:26Z</time>
      </trkpt>
      <trkpt lat="46.48836" lon="-1.7656">
        <ele>14.24</ele>
        <time>2016-01-23T10:08:47Z</time>
      </trkpt>
      <trkpt lat="46.48852" lon="-1.76574">
        <ele>12.16</ele>
        <time>2016-01-23T10:09:04Z</time>
      </trkpt>
      <trkpt lat="46.48866" lon="-1.76592">
        <ele>13.04</ele>
        <time>2016-01-23T10:09:20Z</time>
      </trkpt>
      <trkpt lat="46.4888" lon="-1.76608">
        <ele>14.23</ele>
        <time>2016-01-23T10:09:35Z</time>
      </trkpt>
      <trkpt lat="46.48895" lon="-1.76625">
        <ele>16.28</ele>
        <time>2016-01-23T10:09:50Z</time>
      </trkpt>
      <trkpt lat="46.48909" lon="-1.76641">
        <ele>17.81</ele>
        <time>2016-01-23T10:10:05Z</time>
      </trkpt>
      <trkpt lat="46.48922" lon="-1.76661">
        <ele>19.59</ele>
        <time>2016-01-23T10:10:19Z</time>
      </trkpt>
      <trkpt lat="46.48932" lon="-1.76684">
        <ele>16.73</ele>
        <time>2016-01-23T10:10:50Z</time>
      </trkpt>
      <trkpt lat="46.48934" lon="-1.76711">
        <ele>18.88</ele>
        <time>2016-01-23T10:11:11Z</time>
      </trkpt>
      <trkpt lat="46.48933" lon="-1.76738">
        <ele>20.03</ele>
        <time>2016-01-23T10:11:27Z</time>
      </trkpt>
      <trkpt lat="46.48931" lon="-1.76765">
        <ele>22.66</ele>
        <time>2016-01-23T10:11:42Z</time>
      </trkpt>
      <trkpt lat="46.48925" lon="-1.76792">
        <ele>25.41</ele>
        <time>2016-01-23T10:11:58Z</time>
      </trkpt>
      <trkpt lat="46.48922" lon="-1.76818">
        <ele>29.4</ele>
        <time>2016-01-23T10:12:14Z</time>
      </trkpt>
      <trkpt lat="46.48922" lon="-1.76846">
        <ele>23.99</ele>
        <time>2016-01-23T10:12:34Z</time>
      </trkpt>
      <trkpt lat="46.48912" lon="-1.76868">
        <ele>23.18</ele>
        <time>2016-01-23T10:12:49Z</time>
      </trkpt>
      <trkpt lat="46.48906" lon="-1.76894">
        <ele>17.06</ele>
        <time>2016-01-23T10:15:23Z</time>
      </trkpt>
      <trkpt lat="46.4889" lon="-1.76908">
        <ele>9.74</ele>
        <time>2016-01-23T10:16:11Z</time>
      </trkpt>
      <trkpt lat="46.48882" lon="-1.76932">
        <ele>20.2</ele>
        <time>2016-01-23T10:20:58Z</time>
      </trkpt>
      <trkpt lat="46.48869" lon="-1.76951">
        <ele>21.68</ele>
        <time>2016-01-23T10:21:11Z</time>
      </trkpt>
      <trkpt lat="46.48872" lon="-1.76977">
        <ele>14.07</ele>
        <time>2016-01-23T10:21:44Z</time>
      </trkpt>
      <trkpt lat="46.4889" lon="-1.76983">
        <ele>15.26</ele>
        <time>2016-01-23T10:22:16Z</time>
      </trkpt>
      <trkpt lat="46.48908" lon="-1.76991">
        <ele>13.36</ele>
        <time>2016-01-23T10:22:40Z</time>
      </trkpt>
      <trkpt lat="46.48921" lon="-1.77011">
        <ele>11.92</ele>
        <time>2016-01-23T10:22:58Z</time>
      </trkpt>
      <trkpt lat="46.4893" lon="-1.77035">
        <ele>12.87</ele>
        <time>2016-01-23T10:23:13Z</time>
      </trkpt>
      <trkpt lat="46.48939" lon="-1.77059">
        <ele>12.61</ele>
        <time>2016-01-23T10:23:28Z</time>
      </trkpt>
      <trkpt lat="46.48949" lon="-1.77082">
        <ele>10.77</ele>
        <time>2016-01-23T10:23:44Z</time>
      </trkpt>
      <trkpt lat="46.4896" lon="-1.77103">
        <ele>12.46</ele>
        <time>2016-01-23T10:24:01Z</time>
      </trkpt>
      <trkpt lat="46.4897" lon="-1.77126">
        <ele>10.6</ele>
        <time>2016-01-23T10:24:18Z</time>
      </trkpt>
      <trkpt lat="46.48981" lon="-1.77148">
        <ele>10.22</ele>
        <time>2016-01-23T10:24:35Z</time>
      </trkpt>
      <trkpt lat="46.48991" lon="-1.77171">
        <ele>9.94</ele>
        <time>2016-01-23T10:24:53Z</time>
      </trkpt>
      <trkpt lat="46.49002" lon="-1.77193">
        <ele>9.62</ele>
        <time>2016-01-23T10:25:10Z</time>
      </trkpt>
      <trkpt lat="46.49011" lon="-1.77216">
        <ele>10.15</ele>
        <time>2016-01-23T10:25:26Z</time>
      </trkpt>
      <trkpt lat="46.49021" lon="-1.77238">
        <ele>9.52</ele>
        <time>2016-01-23T10:25:42Z</time>
      </trkpt>
      <trkpt lat="46.49031" lon="-1.77261">
        <ele>9.42</ele>
        <time>2016-01-23T10:25:57Z</time>
      </trkpt>
      <trkpt lat="46.4904" lon="-1.77283">
        <ele>8.36</ele>
        <time>2016-01-23T10:26:15Z</time>
      </trkpt>
      <trkpt lat="46.49049" lon="-1.77306">
        <ele>6.71</ele>
        <time>2016-01-23T10:26:41Z</time>
      </trkpt>
      <trkpt lat="46.49059" lon="-1.77329">
        <ele>6.57</ele>
        <time>2016-01-23T10:26:59Z</time>
      </trkpt>
      <trkpt lat="46.49068" lon="-1.77353">
        <ele>7.04</ele>
        <time>2016-01-23T10:27:15Z</time>
      </trkpt>
      <trkpt lat="46.49077" lon="-1.77376">
        <ele>8.09</ele>
        <time>2016-01-23T10:27:32Z</time>
      </trkpt>
      <trkpt lat="46.49087" lon="-1.77401">
        <ele>8.48</ele>
        <time>2016-01-23T10:27:47Z</time>
      </trkpt>
      <trkpt lat="46.49098" lon="-1.77423">
        <ele>7.06</ele>
        <time>2016-01-23T10:28:04Z</time>
      </trkpt>
      <trkpt lat="46.49108" lon="-1.77445">
        <ele>6.51</ele>
        <time>2016-01-23T10:28:21Z</time>
      </trkpt>
      <trkpt lat="46.49118" lon="-1.77469">
        <ele>7.27</ele>
        <time>2016-01-23T10:28:39Z</time>
      </trkpt>
      <trkpt lat="46.49128" lon="-1.77491">
        <ele>2.1</ele>
        <time>2016-01-23T10:29:58Z</time>
      </trkpt>
      <trkpt lat="46.4914" lon="-1.7751">
        <ele>1.66</ele>
        <time>2016-01-23T10:30:15Z</time>
      </trkpt>
      <trkpt lat="46.49151" lon="-1.77531">
        <ele>1.45</ele>
        <time>2016-01-23T10:30:32Z</time>
      </trkpt>
      <trkpt lat="46.49167" lon="-1.77546">
        <ele>2.21</ele>
        <time>2016-01-23T10:30:49Z</time>
      </trkpt>
      <trkpt lat="46.49179" lon="-1.77566">
        <ele>3.25</ele>
        <time>2016-01-23T10:31:04Z</time>
      </trkpt>
      <trkpt lat="46.49193" lon="-1.77585">
        <ele>3.36</ele>
        <time>2016-01-23T10:31:20Z</time>
      </trkpt>
      <trkpt lat="46.49205" lon="-1.77606">
        <ele>3.35</ele>
        <time>2016-01-23T10:31:36Z</time>
      </trkpt>
      <trkpt lat="46.49219" lon="-1.77623">
        <ele>2.64</ele>
        <time>2016-01-23T10:31:53Z</time>
      </trkpt>
      <trkpt lat="46.49226" lon="-1.77648">
        <ele>3.07</ele>
        <time>2016-01-23T10:32:09Z</time>
      </trkpt>
      <trkpt lat="46.49228" lon="-1.77674">
        <ele>1.8</ele>
        <time>2016-01-23T10:32:25Z</time>
      </trkpt>
      <trkpt lat="46.49237" lon="-1.77697">
        <ele>1.1</ele>
        <time>2016-01-23T10:32:41Z</time>
      </trkpt>
      <trkpt lat="46.49246" lon="-1.7772">
        <ele>1</ele>
        <time>2016-01-23T10:32:58Z</time>
      </trkpt>
      <trkpt lat="46.49256" lon="-1.77744">
        <ele>-0.19</ele>
        <time>2016-01-23T10:33:15Z</time>
      </trkpt>
      <trkpt lat="46.49262" lon="-1.7777">
        <ele>-2.2</ele>
        <time>2016-01-23T10:33:34Z</time>
      </trkpt>
      <trkpt lat="46.4927" lon="-1.77794">
        <ele>-2.1</ele>
        <time>2016-01-23T10:33:58Z</time>
      </trkpt>
      <trkpt lat="46.49277" lon="-1.7782">
        <ele>-1.51</ele>
        <time>2016-01-23T10:34:14Z</time>
      </trkpt>
      <trkpt lat="46.49283" lon="-1.77846">
        <ele>-1.3</ele>
        <time>2016-01-23T10:34:30Z</time>
      </trkpt>
      <trkpt lat="46.49292" lon="-1.77869">
        <ele>-1.05</ele>
        <time>2016-01-23T10:34:47Z</time>
      </trkpt>
      <trkpt lat="46.49301" lon="-1.77894">
        <ele>-0.28</ele>
        <time>2016-01-23T10:35:04Z</time>
      </trkpt>
      <trkpt lat="46.49312" lon="-1.77915">
        <ele>0.87</ele>
        <time>2016-01-23T10:35:20Z</time>
      </trkpt>
      <trkpt lat="46.4932" lon="-1.7794">
        <ele>0.96</ele>
        <time>2016-01-23T10:35:37Z</time>
      </trkpt>
      <trkpt lat="46.49335" lon="-1.77957">
        <ele>-3.69</ele>
        <time>2016-01-23T10:36:01Z</time>
      </trkpt>
      <trkpt lat="46.49338" lon="-1.77983">
        <ele>-1.79</ele>
        <time>2016-01-23T10:36:27Z</time>
      </trkpt>
      <trkpt lat="46.49344" lon="-1.7801">
        <ele>-0.55</ele>
        <time>2016-01-23T10:36:43Z</time>
      </trkpt>
      <trkpt lat="46.49351" lon="-1.78035">
        <ele>-0.96</ele>
        <time>2016-01-23T10:37:01Z</time>
      </trkpt>
      <trkpt lat="46.49358" lon="-1.78061">
        <ele>-0.84</ele>
        <time>2016-01-23T10:37:18Z</time>
      </trkpt>
      <trkpt lat="46.49363" lon="-1.78086">
        <ele>-0.94</ele>
        <time>2016-01-23T10:37:33Z</time>
      </trkpt>
      <trkpt lat="46.4937" lon="-1.78111">
        <ele>-0.52</ele>
        <time>2016-01-23T10:37:50Z</time>
      </trkpt>
      <trkpt lat="46.49376" lon="-1.78137">
        <ele>-0.49</ele>
        <time>2016-01-23T10:38:07Z</time>
      </trkpt>
      <trkpt lat="46.49383" lon="-1.78163">
        <ele>0.14</ele>
        <time>2016-01-23T10:38:24Z</time>
      </trkpt>
      <trkpt lat="46.49391" lon="-1.78188">
        <ele>-1.04</ele>
        <time>2016-01-23T10:38:50Z</time>
      </trkpt>
      <trkpt lat="46.49394" lon="-1.78214">
        <ele>2.19</ele>
        <time>2016-01-23T10:39:03Z</time>
      </trkpt>
      <trkpt lat="46.49399" lon="-1.7824">
        <ele>2.66</ele>
        <time>2016-01-23T10:39:20Z</time>
      </trkpt>
      <trkpt lat="46.49404" lon="-1.78266">
        <ele>2.78</ele>
        <time>2016-01-23T10:39:36Z</time>
      </trkpt>
      <trkpt lat="46.49409" lon="-1.78291">
        <ele>3.07</ele>
        <time>2016-01-23T10:39:53Z</time>
      </trkpt>
      <trkpt lat="46.49415" lon="-1.78317">
        <ele>2.42</ele>
        <time>2016-01-23T10:40:10Z</time>
      </trkpt>
      <trkpt lat="46.49423" lon="-1.78342">
        <ele>-0.5</ele>
        <time>2016-01-23T10:40:27Z</time>
      </trkpt>
      <trkpt lat="46.49425" lon="-1.78368">
        <ele>-0.71</ele>
        <time>2016-01-23T10:40:42Z</time>
      </trkpt>
      <trkpt lat="46.49428" lon="-1.78394">
        <ele>-0.73</ele>
        <time>2016-01-23T10:40:57Z</time>
      </trkpt>
      <trkpt lat="46.49429" lon="-1.78421">
        <ele>-1.18</ele>
        <time>2016-01-23T10:41:13Z</time>
      </trkpt>
      <trkpt lat="46.49431" lon="-1.78448">
        <ele>-1.96</ele>
        <time>2016-01-23T10:41:30Z</time>
      </trkpt>
      <trkpt lat="46.49434" lon="-1.78474">
        <ele>-1.77</ele>
        <time>2016-01-23T10:41:46Z</time>
      </trkpt>
      <trkpt lat="46.49436" lon="-1.78502">
        <ele>-2.98</ele>
        <time>2016-01-23T10:42:03Z</time>
      </trkpt>
      <trkpt lat="46.49437" lon="-1.78529">
        <ele>-3.8</ele>
        <time>2016-01-23T10:42:20Z</time>
      </trkpt>
      <trkpt lat="46.4944" lon="-1.78555">
        <ele>-4.62</ele>
        <time>2016-01-23T10:42:39Z</time>
      </trkpt>
      <trkpt lat="46.4944" lon="-1.78582">
        <ele>-4.29</ele>
        <time>2016-01-23T10:42:55Z</time>
      </trkpt>
      <trkpt lat="46.49444" lon="-1.78608">
        <ele>-2.8</ele>
        <time>2016-01-23T10:43:18Z</time>
      </trkpt>
      <trkpt lat="46.49449" lon="-1.78634">
        <ele>-0.38</ele>
        <time>2016-01-23T10:43:33Z</time>
      </trkpt>
      <trkpt lat="46.4945" lon="-1.7866">
        <ele>-0.11</ele>
        <time>2016-01-23T10:43:50Z</time>
      </trkpt>
      <trkpt lat="46.49463" lon="-1.78678">
        <ele>3.4</ele>
        <time>2016-01-23T10:46:10Z</time>
      </trkpt>
      <trkpt lat="46.49459" lon="-1.78704">
        <ele>5.19</ele>
        <time>2016-01-23T10:46:35Z</time>
      </trkpt>
      <trkpt lat="46.49456" lon="-1.78731">
        <ele>4.97</ele>
        <time>2016-01-23T10:46:53Z</time>
      </trkpt>
      <trkpt lat="46.49453" lon="-1.78757">
        <ele>5.58</ele>
        <time>2016-01-23T10:47:09Z</time>
      </trkpt>
      <trkpt lat="46.49449" lon="-1.78783">
        <ele>6.38</ele>
        <time>2016-01-23T10:47:28Z</time>
      </trkpt>
      <trkpt lat="46.49442" lon="-1.78809">
        <ele>4.68</ele>
        <time>2016-01-23T10:47:42Z</time>
      </trkpt>
      <trkpt lat="46.49438" lon="-1.78834">
        <ele>4.17</ele>
        <time>2016-01-23T10:47:56Z</time>
      </trkpt>
      <trkpt lat="46.49434" lon="-1.78862">
        <ele>2.24</ele>
        <time>2016-01-23T10:48:13Z</time>
      </trkpt>
      <trkpt lat="46.49429" lon="-1.78888">
        <ele>2.04</ele>
        <time>2016-01-23T10:48:29Z</time>
      </trkpt>
      <trkpt lat="46.49427" lon="-1.78915">
        <ele>1.49</ele>
        <time>2016-01-23T10:48:48Z</time>
      </trkpt>
      <trkpt lat="46.49428" lon="-1.78942">
        <ele>1.35</ele>
        <time>2016-01-23T10:49:06Z</time>
      </trkpt>
      <trkpt lat="46.49441" lon="-1.78959">
        <ele>2.19</ele>
        <time>2016-01-23T10:49:24Z</time>
      </trkpt>
      <trkpt lat="46.49452" lon="-1.78981">
        <ele>3.74</ele>
        <time>2016-01-23T10:49:41Z</time>
      </trkpt>
      <trkpt lat="46.49454" lon="-1.79008">
        <ele>4.8</ele>
        <time>2016-01-23T10:50:05Z</time>
      </trkpt>
      <trkpt lat="46.49448" lon="-1.79032">
        <ele>6.77</ele>
        <time>2016-01-23T10:50:21Z</time>
      </trkpt>
      <trkpt lat="46.49441" lon="-1.79057">
        <ele>7.08</ele>
        <time>2016-01-23T10:50:37Z</time>
      </trkpt>
      <trkpt lat="46.49428" lon="-1.79077">
        <ele>6.48</ele>
        <time>2016-01-23T10:50:58Z</time>
      </trkpt>
      <trkpt lat="46.49419" lon="-1.791">
        <ele>6.64</ele>
        <time>2016-01-23T10:51:13Z</time>
      </trkpt>
      <trkpt lat="46.49411" lon="-1.79125">
        <ele>6.43</ele>
        <time>2016-01-23T10:51:29Z</time>
      </trkpt>
      <trkpt lat="46.49411" lon="-1.79152">
        <ele>7.14</ele>
        <time>2016-01-23T10:51:51Z</time>
      </trkpt>
      <trkpt lat="46.49404" lon="-1.79177">
        <ele>4.9</ele>
        <time>2016-01-23T10:52:21Z</time>
      </trkpt>
      <trkpt lat="46.49395" lon="-1.79201">
        <ele>3.36</ele>
        <time>2016-01-23T10:52:39Z</time>
      </trkpt>
      <trkpt lat="46.49385" lon="-1.79223">
        <ele>6.07</ele>
        <time>2016-01-23T10:52:55Z</time>
      </trkpt>
      <trkpt lat="46.4937" lon="-1.79238">
        <ele>12.43</ele>
        <time>2016-01-23T10:53:09Z</time>
      </trkpt>
      <trkpt lat="46.49357" lon="-1.79257">
        <ele>4.41</ele>
        <time>2016-01-23T10:53:32Z</time>
      </trkpt>
      <trkpt lat="46.49341" lon="-1.79271">
        <ele>5.86</ele>
        <time>2016-01-23T10:53:49Z</time>
      </trkpt>
      <trkpt lat="46.49344" lon="-1.79297">
        <ele>4.66</ele>
        <time>2016-01-23T10:54:46Z</time>
      </trkpt>
      <trkpt lat="46.49355" lon="-1.79319">
        <ele>5.65</ele>
        <time>2016-01-23T10:55:00Z</time>
      </trkpt>
      <trkpt lat="46.49368" lon="-1.79339">
        <ele>5.13</ele>
        <time>2016-01-23T10:55:16Z</time>
      </trkpt>
      <trkpt lat="46.49383" lon="-1.79356">
        <ele>4.09</ele>
        <time>2016-01-23T10:55:30Z</time>
      </trkpt>
      <trkpt lat="46.49386" lon="-1.79382">
        <ele>3.59</ele>
        <time>2016-01-23T10:55:44Z</time>
      </trkpt>
      <trkpt lat="46.49405" lon="-1.79384">
        <ele>4.61</ele>
        <time>2016-01-23T10:56:27Z</time>
      </trkpt>
      <trkpt lat="46.49416" lon="-1.79404">
        <ele>4.86</ele>
        <time>2016-01-23T10:56:43Z</time>
      </trkpt>
      <trkpt lat="46.49428" lon="-1.79424">
        <ele>4.76</ele>
        <time>2016-01-23T10:57:00Z</time>
      </trkpt>
      <trkpt lat="46.49443" lon="-1.79438">
        <ele>3.63</ele>
        <time>2016-01-23T10:57:13Z</time>
      </trkpt>
      <trkpt lat="46.49462" lon="-1.79447">
        <ele>3.61</ele>
        <time>2016-01-23T10:57:27Z</time>
      </trkpt>
      <trkpt lat="46.49479" lon="-1.79455">
        <ele>5.88</ele>
        <time>2016-01-23T10:57:41Z</time>
      </trkpt>
      <trkpt lat="46.49497" lon="-1.79463">
        <ele>4.41</ele>
        <time>2016-01-23T10:57:55Z</time>
      </trkpt>
      <trkpt lat="46.49513" lon="-1.79473">
        <ele>4.39</ele>
        <time>2016-01-23T10:58:10Z</time>
      </trkpt>
      <trkpt lat="46.4953" lon="-1.79484">
        <ele>4.74</ele>
        <time>2016-01-23T10:58:26Z</time>
      </trkpt>
      <trkpt lat="46.49547" lon="-1.7949">
        <ele>4.93</ele>
        <time>2016-01-23T10:58:37Z</time>
      </trkpt>
      <trkpt lat="46.49565" lon="-1.79496">
        <ele>5.74</ele>
        <time>2016-01-23T10:58:52Z</time>
      </trkpt>
      <trkpt lat="46.49584" lon="-1.79498">
        <ele>5.86</ele>
        <time>2016-01-23T10:59:07Z</time>
      </trkpt>
      <trkpt lat="46.49602" lon="-1.79493">
        <ele>6.08</ele>
        <time>2016-01-23T10:59:21Z</time>
      </trkpt>
      <trkpt lat="46.49617" lon="-1.79478">
        <ele>4.61</ele>
        <time>2016-01-23T10:59:49Z</time>
      </trkpt>
      <trkpt lat="46.49636" lon="-1.795">
        <ele>-0.49</ele>
        <time>2016-01-23T11:05:38Z</time>
      </trkpt>
      <trkpt lat="46.49651" lon="-1.79516">
        <ele>0.68</ele>
        <time>2016-01-23T11:08:09Z</time>
      </trkpt>
      <trkpt lat="46.49662" lon="-1.79538">
        <ele>2.11</ele>
        <time>2016-01-23T11:08:44Z</time>
      </trkpt>
      <trkpt lat="46.49679" lon="-1.79551">
        <ele>2.08</ele>
        <time>2016-01-23T11:09:00Z</time>
      </trkpt>
      <trkpt lat="46.49696" lon="-1.79563">
        <ele>2.9</ele>
        <time>2016-01-23T11:09:16Z</time>
      </trkpt>
      <trkpt lat="46.49709" lon="-1.79581">
        <ele>3.49</ele>
        <time>2016-01-23T11:09:30Z</time>
      </trkpt>
      <trkpt lat="46.49711" lon="-1.79608">
        <ele>4.24</ele>
        <time>2016-01-23T11:09:46Z</time>
      </trkpt>
      <trkpt lat="46.497" lon="-1.79628">
        <ele>4.13</ele>
        <time>2016-01-23T11:10:05Z</time>
      </trkpt>
      <trkpt lat="46.49682" lon="-1.79633">
        <ele>3.28</ele>
        <time>2016-01-23T11:11:23Z</time>
      </trkpt>
      <trkpt lat="46.49664" lon="-1.79633">
        <ele>9.01</ele>
        <time>2016-01-23T11:13:23Z</time>
      </trkpt>
      <trkpt lat="46.49646" lon="-1.79627">
        <ele>6.37</ele>
        <time>2016-01-23T11:14:30Z</time>
      </trkpt>
      <trkpt lat="46.49627" lon="-1.79624">
        <ele>5.3</ele>
        <time>2016-01-23T11:14:50Z</time>
      </trkpt>
      <trkpt lat="46.49609" lon="-1.79621">
        <ele>4.35</ele>
        <time>2016-01-23T11:15:09Z</time>
      </trkpt>
      <trkpt lat="46.49592" lon="-1.79617">
        <ele>5.2</ele>
        <time>2016-01-23T11:15:26Z</time>
      </trkpt>
      <trkpt lat="46.49574" lon="-1.79612">
        <ele>7.57</ele>
        <time>2016-01-23T11:15:43Z</time>
      </trkpt>
      <trkpt lat="46.49555" lon="-1.79606">
        <ele>6.95</ele>
        <time>2016-01-23T11:16:03Z</time>
      </trkpt>
      <trkpt lat="46.49537" lon="-1.79602">
        <ele>5.28</ele>
        <time>2016-01-23T11:16:20Z</time>
      </trkpt>
      <trkpt lat="46.49519" lon="-1.79599">
        <ele>5.74</ele>
        <time>2016-01-23T11:16:37Z</time>
      </trkpt>
      <trkpt lat="46.49501" lon="-1.79594">
        <ele>5.45</ele>
        <time>2016-01-23T11:16:53Z</time>
      </trkpt>
      <trkpt lat="46.49483" lon="-1.79587">
        <ele>5.66</ele>
        <time>2016-01-23T11:17:09Z</time>
      </trkpt>
      <trkpt lat="46.49466" lon="-1.79579">
        <ele>5.11</ele>
        <time>2016-01-23T11:17:24Z</time>
      </trkpt>
      <trkpt lat="46.49449" lon="-1.7957">
        <ele>4.92</ele>
        <time>2016-01-23T11:17:39Z</time>
      </trkpt>
      <trkpt lat="46.49431" lon="-1.79562">
        <ele>3.11</ele>
        <time>2016-01-23T11:17:56Z</time>
      </trkpt>
      <trkpt lat="46.49414" lon="-1.79554">
        <ele>2.59</ele>
        <time>2016-01-23T11:18:12Z</time>
      </trkpt>
      <trkpt lat="46.49397" lon="-1.79545">
        <ele>2.47</ele>
        <time>2016-01-23T11:18:29Z</time>
      </trkpt>
      <trkpt lat="46.49379" lon="-1.79537">
        <ele>4.72</ele>
        <time>2016-01-23T11:18:43Z</time>
      </trkpt>
      <trkpt lat="46.49362" lon="-1.79527">
        <ele>6.77</ele>
        <time>2016-01-23T11:18:58Z</time>
      </trkpt>
      <trkpt lat="46.49344" lon="-1.79519">
        <ele>5.92</ele>
        <time>2016-01-23T11:19:15Z</time>
      </trkpt>
      <trkpt lat="46.49327" lon="-1.79509">
        <ele>6.01</ele>
        <time>2016-01-23T11:19:31Z</time>
      </trkpt>
      <trkpt lat="46.49309" lon="-1.79501">
        <ele>8.72</ele>
        <time>2016-01-23T11:19:47Z</time>
      </trkpt>
      <trkpt lat="46.49292" lon="-1.79488">
        <ele>15.45</ele>
        <time>2016-01-23T11:20:03Z</time>
      </trkpt>
      <trkpt lat="46.49273" lon="-1.79482">
        <ele>16.82</ele>
        <time>2016-01-23T11:20:22Z</time>
      </trkpt>
      <trkpt lat="46.49254" lon="-1.79482">
        <ele>13.09</ele>
        <time>2016-01-23T11:20:39Z</time>
      </trkpt>
      <trkpt lat="46.49236" lon="-1.79479">
        <ele>10.23</ele>
        <time>2016-01-23T11:20:59Z</time>
      </trkpt>
      <trkpt lat="46.49222" lon="-1.79462">
        <ele>10.36</ele>
        <time>2016-01-23T11:21:28Z</time>
      </trkpt>
      <trkpt lat="46.49206" lon="-1.7945">
        <ele>11.55</ele>
        <time>2016-01-23T11:21:42Z</time>
      </trkpt>
      <trkpt lat="46.49189" lon="-1.79439">
        <ele>11.73</ele>
        <time>2016-01-23T11:21:58Z</time>
      </trkpt>
      <trkpt lat="46.49172" lon="-1.79426">
        <ele>11.32</ele>
        <time>2016-01-23T11:22:13Z</time>
      </trkpt>
      <trkpt lat="46.49155" lon="-1.79418">
        <ele>9.29</ele>
        <time>2016-01-23T11:22:30Z</time>
      </trkpt>
      <trkpt lat="46.49139" lon="-1.79404">
        <ele>10.93</ele>
        <time>2016-01-23T11:22:46Z</time>
      </trkpt>
      <trkpt lat="46.49122" lon="-1.79393">
        <ele>10.25</ele>
        <time>2016-01-23T11:23:03Z</time>
      </trkpt>
      <trkpt lat="46.49105" lon="-1.79384">
        <ele>7.9</ele>
        <time>2016-01-23T11:23:22Z</time>
      </trkpt>
      <trkpt lat="46.49088" lon="-1.79374">
        <ele>7</ele>
        <time>2016-01-23T11:23:39Z</time>
      </trkpt>
      <trkpt lat="46.49071" lon="-1.79363">
        <ele>7.3</ele>
        <time>2016-01-23T11:23:56Z</time>
      </trkpt>
      <trkpt lat="46.49068" lon="-1.7939">
        <ele>6.68</ele>
        <time>2016-01-23T11:24:15Z</time>
      </trkpt>
      <trkpt lat="46.49062" lon="-1.79415">
        <ele>7.19</ele>
        <time>2016-01-23T11:24:35Z</time>
      </trkpt>
      <trkpt lat="46.49044" lon="-1.79418">
        <ele>7.15</ele>
        <time>2016-01-23T11:24:54Z</time>
      </trkpt>
      <trkpt lat="46.49034" lon="-1.79441">
        <ele>6.81</ele>
        <time>2016-01-23T11:52:17Z</time>
      </trkpt>
      <trkpt lat="46.49016" lon="-1.79444">
        <ele>7.34</ele>
        <time>2016-01-23T12:13:47Z</time>
      </trkpt>
      <trkpt lat="46.48997" lon="-1.79439">
        <ele>5.52</ele>
        <time>2016-01-23T12:14:19Z</time>
      </trkpt>
      <trkpt lat="46.48978" lon="-1.79442">
        <ele>4.66</ele>
        <time>2016-01-23T12:14:37Z</time>
      </trkpt>
      <trkpt lat="46.48976" lon="-1.79469">
        <ele>4.67</ele>
        <time>2016-01-23T12:15:12Z</time>
      </trkpt>
      <trkpt lat="46.48966" lon="-1.79491">
        <ele>5.34</ele>
        <time>2016-01-23T12:15:31Z</time>
      </trkpt>
      <trkpt lat="46.48963" lon="-1.79517">
        <ele>3.09</ele>
        <time>2016-01-23T12:16:16Z</time>
      </trkpt>
      <trkpt lat="46.48976" lon="-1.79536">
        <ele>1.68</ele>
        <time>2016-01-23T12:16:53Z</time>
      </trkpt>
      <trkpt lat="46.48986" lon="-1.79559">
        <ele>3.55</ele>
        <time>2016-01-23T12:18:00Z</time>
      </trkpt>
      <trkpt lat="46.48998" lon="-1.79578">
        <ele>9.23</ele>
        <time>2016-01-23T12:18:21Z</time>
      </trkpt>
      <trkpt lat="46.48984" lon="-1.79594">
        <ele>9.38</ele>
        <time>2016-01-23T12:19:07Z</time>
      </trkpt>
      <trkpt lat="46.48967" lon="-1.79606">
        <ele>8.35</ele>
        <time>2016-01-23T12:19:38Z</time>
      </trkpt>
      <trkpt lat="46.48953" lon="-1.79623">
        <ele>7.44</ele>
        <time>2016-01-23T12:20:00Z</time>
      </trkpt>
      <trkpt lat="46.48948" lon="-1.79649">
        <ele>7.64</ele>
        <time>2016-01-23T12:20:19Z</time>
      </trkpt>
      <trkpt lat="46.48937" lon="-1.79672">
        <ele>6.21</ele>
        <time>2016-01-23T12:21:11Z</time>
      </trkpt>
      <trkpt lat="46.48934" lon="-1.79698">
        <ele>4.17</ele>
        <time>2016-01-23T12:21:33Z</time>
      </trkpt>
      <trkpt lat="46.48939" lon="-1.79723">
        <ele>3.44</ele>
        <time>2016-01-23T12:21:54Z</time>
      </trkpt>
      <trkpt lat="46.48943" lon="-1.79749">
        <ele>4.03</ele>
        <time>2016-01-23T12:22:14Z</time>
      </trkpt>
      <trkpt lat="46.4895" lon="-1.79775">
        <ele>3.65</ele>
        <time>2016-01-23T12:22:34Z</time>
      </trkpt>
      <trkpt lat="46.4895" lon="-1.79802">
        <ele>4.37</ele>
        <time>2016-01-23T12:22:56Z</time>
      </trkpt>
      <trkpt lat="46.48945" lon="-1.79829">
        <ele>5.68</ele>
        <time>2016-01-23T12:23:14Z</time>
      </trkpt>
      <trkpt lat="46.48938" lon="-1.79853">
        <ele>5.66</ele>
        <time>2016-01-23T12:23:32Z</time>
      </trkpt>
      <trkpt lat="46.48925" lon="-1.79873">
        <ele>5.92</ele>
        <time>2016-01-23T12:23:52Z</time>
      </trkpt>
      <trkpt lat="46.48913" lon="-1.79894">
        <ele>6.83</ele>
        <time>2016-01-23T12:24:11Z</time>
      </trkpt>
      <trkpt lat="46.489" lon="-1.79913">
        <ele>6.53</ele>
        <time>2016-01-23T12:24:31Z</time>
      </trkpt>
      <trkpt lat="46.48906" lon="-1.79938">
        <ele>6.13</ele>
        <time>2016-01-23T12:24:51Z</time>
      </trkpt>
      <trkpt lat="46.48904" lon="-1.79965">
        <ele>2.22</ele>
        <time>2016-01-23T12:25:07Z</time>
      </trkpt>
      <trkpt lat="46.48908" lon="-1.79991">
        <ele>0.59</ele>
        <time>2016-01-23T12:25:25Z</time>
      </trkpt>
      <trkpt lat="46.4891" lon="-1.80018">
        <ele>5.32</ele>
        <time>2016-01-23T12:25:45Z</time>
      </trkpt>
      <trkpt lat="46.48911" lon="-1.80045">
        <ele>8.33</ele>
        <time>2016-01-23T12:26:06Z</time>
      </trkpt>
      <trkpt lat="46.48914" lon="-1.80072">
        <ele>8.36</ele>
        <time>2016-01-23T12:26:34Z</time>
      </trkpt>
      <trkpt lat="46.48918" lon="-1.80099">
        <ele>8.98</ele>
        <time>2016-01-23T12:26:53Z</time>
      </trkpt>
      <trkpt lat="46.48927" lon="-1.80122">
        <ele>8.64</ele>
        <time>2016-01-23T12:27:14Z</time>
      </trkpt>
      <trkpt lat="46.48937" lon="-1.80144">
        <ele>8</ele>
        <time>2016-01-23T12:28:52Z</time>
      </trkpt>
      <trkpt lat="46.48938" lon="-1.80171">
        <ele>8.57</ele>
        <time>2016-01-23T12:29:11Z</time>
      </trkpt>
      <trkpt lat="46.48934" lon="-1.80198">
        <ele>9.79</ele>
        <time>2016-01-23T12:30:38Z</time>
      </trkpt>
      <trkpt lat="46.48928" lon="-1.80223">
        <ele>9.34</ele>
        <time>2016-01-23T12:30:54Z</time>
      </trkpt>
      <trkpt lat="46.48924" lon="-1.80249">
        <ele>8.07</ele>
        <time>2016-01-23T12:31:10Z</time>
      </trkpt>
      <trkpt lat="46.48926" lon="-1.80275">
        <ele>7.86</ele>
        <time>2016-01-23T12:31:26Z</time>
      </trkpt>
      <trkpt lat="46.4893" lon="-1.80301">
        <ele>8.31</ele>
        <time>2016-01-23T12:31:42Z</time>
      </trkpt>
      <trkpt lat="46.48935" lon="-1.80328">
        <ele>8.67</ele>
        <time>2016-01-23T12:31:59Z</time>
      </trkpt>
      <trkpt lat="46.48942" lon="-1.80354">
        <ele>8.61</ele>
        <time>2016-01-23T12:32:16Z</time>
      </trkpt>
      <trkpt lat="46.48944" lon="-1.80381">
        <ele>7.62</ele>
        <time>2016-01-23T12:32:33Z</time>
      </trkpt>
      <trkpt lat="46.48951" lon="-1.80406">
        <ele>7.58</ele>
        <time>2016-01-23T12:32:50Z</time>
      </trkpt>
      <trkpt lat="46.48965" lon="-1.80424">
        <ele>8.24</ele>
        <time>2016-01-23T12:33:07Z</time>
      </trkpt>
      <trkpt lat="46.4898" lon="-1.80437">
        <ele>7.69</ele>
        <time>2016-01-23T12:33:26Z</time>
      </trkpt>
      <trkpt lat="46.48991" lon="-1.8046">
        <ele>7.61</ele>
        <time>2016-01-23T12:33:45Z</time>
      </trkpt>
      <trkpt lat="46.49007" lon="-1.80472">
        <ele>5.51</ele>
        <time>2016-01-23T12:34:11Z</time>
      </trkpt>
      <trkpt lat="46.49025" lon="-1.8048">
        <ele>6.37</ele>
        <time>2016-01-23T12:34:30Z</time>
      </trkpt>
      <trkpt lat="46.49041" lon="-1.80492">
        <ele>8.32</ele>
        <time>2016-01-23T12:34:46Z</time>
      </trkpt>
      <trkpt lat="46.49052" lon="-1.80513">
        <ele>8.23</ele>
        <time>2016-01-23T12:35:10Z</time>
      </trkpt>
      <trkpt lat="46.4907" lon="-1.80523">
        <ele>8.45</ele>
        <time>2016-01-23T12:35:30Z</time>
      </trkpt>
      <trkpt lat="46.49086" lon="-1.80538">
        <ele>9.62</ele>
        <time>2016-01-23T12:35:48Z</time>
      </trkpt>
      <trkpt lat="46.49104" lon="-1.80536">
        <ele>9.53</ele>
        <time>2016-01-23T12:36:27Z</time>
      </trkpt>
      <trkpt lat="46.49119" lon="-1.80521">
        <ele>11.7</ele>
        <time>2016-01-23T12:36:44Z</time>
      </trkpt>
      <trkpt lat="46.49125" lon="-1.80496">
        <ele>11.46</ele>
        <time>2016-01-23T12:37:10Z</time>
      </trkpt>
      <trkpt lat="46.49124" lon="-1.80469">
        <ele>13.33</ele>
        <time>2016-01-23T12:37:26Z</time>
      </trkpt>
      <trkpt lat="46.49122" lon="-1.80443">
        <ele>9.83</ele>
        <time>2016-01-23T12:37:44Z</time>
      </trkpt>
      <trkpt lat="46.49119" lon="-1.80416">
        <ele>10.25</ele>
        <time>2016-01-23T12:38:02Z</time>
      </trkpt>
      <trkpt lat="46.49117" lon="-1.8039">
        <ele>11.41</ele>
        <time>2016-01-23T12:38:20Z</time>
      </trkpt>
      <trkpt lat="46.49119" lon="-1.80363">
        <ele>10.32</ele>
        <time>2016-01-23T12:38:36Z</time>
      </trkpt>
      <trkpt lat="46.49121" lon="-1.80336">
        <ele>11.82</ele>
        <time>2016-01-23T12:38:51Z</time>
      </trkpt>
      <trkpt lat="46.49127" lon="-1.8031">
        <ele>13.57</ele>
        <time>2016-01-23T12:39:10Z</time>
      </trkpt>
      <trkpt lat="46.49127" lon="-1.80284">
        <ele>11.9</ele>
        <time>2016-01-23T12:39:33Z</time>
      </trkpt>
      <trkpt lat="46.49141" lon="-1.80266">
        <ele>15.68</ele>
        <time>2016-01-23T12:40:18Z</time>
      </trkpt>
      <trkpt lat="46.49147" lon="-1.8024">
        <ele>13.76</ele>
        <time>2016-01-23T12:40:45Z</time>
      </trkpt>
      <trkpt lat="46.49157" lon="-1.80217">
        <ele>15.27</ele>
        <time>2016-01-23T12:41:26Z</time>
      </trkpt>
      <trkpt lat="46.49166" lon="-1.80192">
        <ele>16.46</ele>
        <time>2016-01-23T12:41:45Z</time>
      </trkpt>
      <trkpt lat="46.49173" lon="-1.80167">
        <ele>15.99</ele>
        <time>2016-01-23T12:42:08Z</time>
      </trkpt>
      <trkpt lat="46.49182" lon="-1.80144">
        <ele>15.01</ele>
        <time>2016-01-23T12:42:25Z</time>
      </trkpt>
      <trkpt lat="46.49189" lon="-1.80119">
        <ele>15.22</ele>
        <time>2016-01-23T12:42:41Z</time>
      </trkpt>
      <trkpt lat="46.49196" lon="-1.80094">
        <ele>14.46</ele>
        <time>2016-01-23T12:42:58Z</time>
      </trkpt>
      <trkpt lat="46.49203" lon="-1.80069">
        <ele>15.4</ele>
        <time>2016-01-23T12:43:14Z</time>
      </trkpt>
      <trkpt lat="46.49211" lon="-1.80045">
        <ele>14.7</ele>
        <time>2016-01-23T12:43:32Z</time>
      </trkpt>
      <trkpt lat="46.4922" lon="-1.80021">
        <ele>12.57</ele>
        <time>2016-01-23T12:43:48Z</time>
      </trkpt>
      <trkpt lat="46.49229" lon="-1.79997">
        <ele>11.66</ele>
        <time>2016-01-23T12:44:06Z</time>
      </trkpt>
      <trkpt lat="46.49237" lon="-1.79974">
        <ele>12.47</ele>
        <time>2016-01-23T12:44:33Z</time>
      </trkpt>
      <trkpt lat="46.49247" lon="-1.7995">
        <ele>13.61</ele>
        <time>2016-01-23T12:44:58Z</time>
      </trkpt>
      <trkpt lat="46.49255" lon="-1.79926">
        <ele>15.62</ele>
        <time>2016-01-23T12:45:17Z</time>
      </trkpt>
      <trkpt lat="46.49273" lon="-1.79917">
        <ele>15.49</ele>
        <time>2016-01-23T12:45:35Z</time>
      </trkpt>
      <trkpt lat="46.49291" lon="-1.79909">
        <ele>13.04</ele>
        <time>2016-01-23T12:45:53Z</time>
      </trkpt>
      <trkpt lat="46.49305" lon="-1.79892">
        <ele>13.64</ele>
        <time>2016-01-23T12:46:09Z</time>
      </trkpt>
      <trkpt lat="46.49318" lon="-1.79874">
        <ele>13.68</ele>
        <time>2016-01-23T12:46:27Z</time>
      </trkpt>
      <trkpt lat="46.49334" lon="-1.79861">
        <ele>14.18</ele>
        <time>2016-01-23T12:46:43Z</time>
      </trkpt>
      <trkpt lat="46.4935" lon="-1.79848">
        <ele>12.41</ele>
        <time>2016-01-23T12:46:58Z</time>
      </trkpt>
      <trkpt lat="46.49365" lon="-1.79834">
        <ele>16.43</ele>
        <time>2016-01-23T12:51:58Z</time>
      </trkpt>
      <trkpt lat="46.49383" lon="-1.79825">
        <ele>14.5</ele>
        <time>2016-01-23T12:52:12Z</time>
      </trkpt>
      <trkpt lat="46.49399" lon="-1.79814">
        <ele>14.53</ele>
        <time>2016-01-23T12:52:28Z</time>
      </trkpt>
      <trkpt lat="46.49414" lon="-1.798">
        <ele>10.9</ele>
        <time>2016-01-23T12:52:45Z</time>
      </trkpt>
      <trkpt lat="46.4943" lon="-1.79783">
        <ele>9.78</ele>
        <time>2016-01-23T12:53:03Z</time>
      </trkpt>
      <trkpt lat="46.49438" lon="-1.7976">
        <ele>7.58</ele>
        <time>2016-01-23T12:53:19Z</time>
      </trkpt>
      <trkpt lat="46.49444" lon="-1.79734">
        <ele>6.59</ele>
        <time>2016-01-23T12:53:35Z</time>
      </trkpt>
      <trkpt lat="46.49459" lon="-1.7972">
        <ele>7.43</ele>
        <time>2016-01-23T12:54:02Z</time>
      </trkpt>
      <trkpt lat="46.49473" lon="-1.79702">
        <ele>7.67</ele>
        <time>2016-01-23T12:54:33Z</time>
      </trkpt>
      <trkpt lat="46.49484" lon="-1.79681">
        <ele>6.93</ele>
        <time>2016-01-23T12:55:31Z</time>
      </trkpt>
      <trkpt lat="46.49494" lon="-1.79657">
        <ele>6.02</ele>
        <time>2016-01-23T12:55:54Z</time>
      </trkpt>
      <trkpt lat="46.4951" lon="-1.79645">
        <ele>7.78</ele>
        <time>2016-01-23T12:56:07Z</time>
      </trkpt>
      <trkpt lat="46.49529" lon="-1.79649">
        <ele>11.47</ele>
        <time>2016-01-23T12:56:38Z</time>
      </trkpt>
      <trkpt lat="46.49546" lon="-1.79656">
        <ele>10.21</ele>
        <time>2016-01-23T12:57:00Z</time>
      </trkpt>
      <trkpt lat="46.49564" lon="-1.79661">
        <ele>11.44</ele>
        <time>2016-01-23T12:57:23Z</time>
      </trkpt>
      <trkpt lat="46.49582" lon="-1.7967">
        <ele>12.52</ele>
        <time>2016-01-23T12:57:43Z</time>
      </trkpt>
      <trkpt lat="46.49599" lon="-1.79676">
        <ele>14.89</ele>
        <time>2016-01-23T12:58:04Z</time>
      </trkpt>
      <trkpt lat="46.49618" lon="-1.79679">
        <ele>17.76</ele>
        <time>2016-01-23T12:58:19Z</time>
      </trkpt>
      <trkpt lat="46.49636" lon="-1.79682">
        <ele>17.39</ele>
        <time>2016-01-23T12:58:35Z</time>
      </trkpt>
      <trkpt lat="46.49653" lon="-1.79689">
        <ele>16.01</ele>
        <time>2016-01-23T12:58:53Z</time>
      </trkpt>
      <trkpt lat="46.49671" lon="-1.79694">
        <ele>15.65</ele>
        <time>2016-01-23T12:59:09Z</time>
      </trkpt>
      <trkpt lat="46.4969" lon="-1.79698">
        <ele>12.49</ele>
        <time>2016-01-23T12:59:34Z</time>
      </trkpt>
      <trkpt lat="46.49708" lon="-1.79701">
        <ele>11.31</ele>
        <time>2016-01-23T13:00:00Z</time>
      </trkpt>
      <trkpt lat="46.49726" lon="-1.79706">
        <ele>12.43</ele>
        <time>2016-01-23T13:00:17Z</time>
      </trkpt>
      <trkpt lat="46.49744" lon="-1.79713">
        <ele>16.83</ele>
        <time>2016-01-23T13:00:32Z</time>
      </trkpt>
      <trkpt lat="46.49743" lon="-1.79741">
        <ele>10.5</ele>
        <time>2016-01-23T13:00:59Z</time>
      </trkpt>
      <trkpt lat="46.49734" lon="-1.79764">
        <ele>4.84</ele>
        <time>2016-01-23T13:01:24Z</time>
      </trkpt>
      <trkpt lat="46.49729" lon="-1.7979">
        <ele>9.68</ele>
        <time>2016-01-23T13:02:15Z</time>
      </trkpt>
      <trkpt lat="46.49717" lon="-1.79811">
        <ele>12.13</ele>
        <time>2016-01-23T13:02:45Z</time>
      </trkpt>
      <trkpt lat="46.49729" lon="-1.79791">
        <ele>12.9</ele>
        <time>2016-01-23T13:07:00Z</time>
      </trkpt>
      <trkpt lat="46.49747" lon="-1.79798">
        <ele>12.99</ele>
        <time>2016-01-23T13:07:11Z</time>
      </trkpt>
      <trkpt lat="46.49765" lon="-1.79802">
        <ele>11.31</ele>
        <time>2016-01-23T13:07:28Z</time>
      </trkpt>
      <trkpt lat="46.49783" lon="-1.79808">
        <ele>11.11</ele>
        <time>2016-01-23T13:07:37Z</time>
      </trkpt>
      <trkpt lat="46.49802" lon="-1.79815">
        <ele>13.42</ele>
        <time>2016-01-23T13:07:49Z</time>
      </trkpt>
      <trkpt lat="46.4982" lon="-1.79824">
        <ele>13.08</ele>
        <time>2016-01-23T13:08:02Z</time>
      </trkpt>
      <trkpt lat="46.49837" lon="-1.79832">
        <ele>15.34</ele>
        <time>2016-01-23T13:08:19Z</time>
      </trkpt>
      <trkpt lat="46.4983" lon="-1.79856">
        <ele>12.06</ele>
        <time>2016-01-23T13:09:01Z</time>
      </trkpt>
      <trkpt lat="46.49822" lon="-1.79881">
        <ele>10.69</ele>
        <time>2016-01-23T13:09:28Z</time>
      </trkpt>
      <trkpt lat="46.49817" lon="-1.79906">
        <ele>11.58</ele>
        <time>2016-01-23T13:09:45Z</time>
      </trkpt>
      <trkpt lat="46.49834" lon="-1.79921">
        <ele>12.26</ele>
        <time>2016-01-23T13:10:19Z</time>
      </trkpt>
      <trkpt lat="46.49851" lon="-1.7993">
        <ele>12.08</ele>
        <time>2016-01-23T13:10:32Z</time>
      </trkpt>
      <trkpt lat="46.49864" lon="-1.79912">
        <ele>12.37</ele>
        <time>2016-01-23T13:10:50Z</time>
      </trkpt>
      <trkpt lat="46.49875" lon="-1.79891">
        <ele>11.95</ele>
        <time>2016-01-23T13:11:05Z</time>
      </trkpt>
      <trkpt lat="46.49883" lon="-1.79865">
        <ele>12.6</ele>
        <time>2016-01-23T13:11:21Z</time>
      </trkpt>
      <trkpt lat="46.49882" lon="-1.79838">
        <ele>13.13</ele>
        <time>2016-01-23T13:11:42Z</time>
      </trkpt>
      <trkpt lat="46.49893" lon="-1.79815">
        <ele>11.21</ele>
        <time>2016-01-23T13:12:02Z</time>
      </trkpt>
      <trkpt lat="46.49899" lon="-1.79789">
        <ele>10.61</ele>
        <time>2016-01-23T13:12:18Z</time>
      </trkpt>
      <trkpt lat="46.49901" lon="-1.79763">
        <ele>8.6</ele>
        <time>2016-01-23T13:12:33Z</time>
      </trkpt>
      <trkpt lat="46.49893" lon="-1.79739">
        <ele>6.83</ele>
        <time>2016-01-23T13:12:56Z</time>
      </trkpt>
      <trkpt lat="46.49892" lon="-1.79713">
        <ele>7.3</ele>
        <time>2016-01-23T13:13:16Z</time>
      </trkpt>
      <trkpt lat="46.49895" lon="-1.79687">
        <ele>7.58</ele>
        <time>2016-01-23T13:13:34Z</time>
      </trkpt>
      <trkpt lat="46.49905" lon="-1.79664">
        <ele>2.91</ele>
        <time>2016-01-23T13:15:45Z</time>
      </trkpt>
      <trkpt lat="46.49923" lon="-1.79663">
        <ele>3.36</ele>
        <time>2016-01-23T13:16:05Z</time>
      </trkpt>
      <trkpt lat="46.49937" lon="-1.79644">
        <ele>3.06</ele>
        <time>2016-01-23T13:16:24Z</time>
      </trkpt>
      <trkpt lat="46.49952" lon="-1.79627">
        <ele>2.58</ele>
        <time>2016-01-23T13:16:42Z</time>
      </trkpt>
      <trkpt lat="46.49965" lon="-1.79607">
        <ele>3.09</ele>
        <time>2016-01-23T13:16:59Z</time>
      </trkpt>
      <trkpt lat="46.4998" lon="-1.79591">
        <ele>1.8</ele>
        <time>2016-01-23T13:17:17Z</time>
      </trkpt>
      <trkpt lat="46.49995" lon="-1.79575">
        <ele>0.89</ele>
        <time>2016-01-23T13:17:34Z</time>
      </trkpt>
      <trkpt lat="46.5001" lon="-1.79559">
        <ele>0.61</ele>
        <time>2016-01-23T13:17:50Z</time>
      </trkpt>
      <trkpt lat="46.50025" lon="-1.79543">
        <ele>1.84</ele>
        <time>2016-01-23T13:18:06Z</time>
      </trkpt>
      <trkpt lat="46.50039" lon="-1.79524">
        <ele>-1.16</ele>
        <time>2016-01-23T13:18:43Z</time>
      </trkpt>
      <trkpt lat="46.50055" lon="-1.79509">
        <ele>-2.59</ele>
        <time>2016-01-23T13:19:17Z</time>
      </trkpt>
      <trkpt lat="46.50074" lon="-1.7952">
        <ele>-0.44</ele>
        <time>2016-01-23T13:19:31Z</time>
      </trkpt>
      <trkpt lat="46.5009" lon="-1.79532">
        <ele>-0.53</ele>
        <time>2016-01-23T13:19:48Z</time>
      </trkpt>
      <trkpt lat="46.50107" lon="-1.79546">
        <ele>1.3</ele>
        <time>2016-01-23T13:20:03Z</time>
      </trkpt>
      <trkpt lat="46.50124" lon="-1.79559">
        <ele>3.81</ele>
        <time>2016-01-23T13:20:18Z</time>
      </trkpt>
      <trkpt lat="46.5014" lon="-1.79571">
        <ele>5.63</ele>
        <time>2016-01-23T13:20:34Z</time>
      </trkpt>
      <trkpt lat="46.50157" lon="-1.79583">
        <ele>7</ele>
        <time>2016-01-23T13:20:49Z</time>
      </trkpt>
      <trkpt lat="46.50174" lon="-1.79594">
        <ele>9.4</ele>
        <time>2016-01-23T13:21:07Z</time>
      </trkpt>
      <trkpt lat="46.50193" lon="-1.79592">
        <ele>5.58</ele>
        <time>2016-01-23T13:21:24Z</time>
      </trkpt>
      <trkpt lat="46.5021" lon="-1.79584">
        <ele>3.73</ele>
        <time>2016-01-23T13:21:43Z</time>
      </trkpt>
      <trkpt lat="46.50225" lon="-1.79568">
        <ele>4.25</ele>
        <time>2016-01-23T13:22:12Z</time>
      </trkpt>
      <trkpt lat="46.50239" lon="-1.79551">
        <ele>6.09</ele>
        <time>2016-01-23T13:22:23Z</time>
      </trkpt>
      <trkpt lat="46.50248" lon="-1.79527">
        <ele>5.82</ele>
        <time>2016-01-23T13:22:38Z</time>
      </trkpt>
      <trkpt lat="46.50254" lon="-1.79501">
        <ele>5.73</ele>
        <time>2016-01-23T13:22:57Z</time>
      </trkpt>
      <trkpt lat="46.50263" lon="-1.79476">
        <ele>5.56</ele>
        <time>2016-01-23T13:23:17Z</time>
      </trkpt>
      <trkpt lat="46.50273" lon="-1.79454">
        <ele>7.09</ele>
        <time>2016-01-23T13:23:36Z</time>
      </trkpt>
      <trkpt lat="46.50282" lon="-1.7943">
        <ele>8.31</ele>
        <time>2016-01-23T13:23:54Z</time>
      </trkpt>
      <trkpt lat="46.50289" lon="-1.79405">
        <ele>8.26</ele>
        <time>2016-01-23T13:24:14Z</time>
      </trkpt>
      <trkpt lat="46.50298" lon="-1.79381">
        <ele>8.39</ele>
        <time>2016-01-23T13:24:30Z</time>
      </trkpt>
      <trkpt lat="46.50302" lon="-1.79354">
        <ele>6</ele>
        <time>2016-01-23T13:24:50Z</time>
      </trkpt>
      <trkpt lat="46.50313" lon="-1.79331">
        <ele>6.01</ele>
        <time>2016-01-23T13:25:06Z</time>
      </trkpt>
      <trkpt lat="46.50321" lon="-1.79307">
        <ele>5.38</ele>
        <time>2016-01-23T13:25:25Z</time>
      </trkpt>
      <trkpt lat="46.50333" lon="-1.79287">
        <ele>4.02</ele>
        <time>2016-01-23T13:25:41Z</time>
      </trkpt>
      <trkpt lat="46.50348" lon="-1.79273">
        <ele>0.41</ele>
        <time>2016-01-23T13:26:03Z</time>
      </trkpt>
      <trkpt lat="46.50356" lon="-1.79248">
        <ele>-1.28</ele>
        <time>2016-01-23T13:26:27Z</time>
      </trkpt>
      <trkpt lat="46.50365" lon="-1.79223">
        <ele>0.11</ele>
        <time>2016-01-23T13:26:50Z</time>
      </trkpt>
      <trkpt lat="46.50363" lon="-1.79197">
        <ele>0.08</ele>
        <time>2016-01-23T13:27:06Z</time>
      </trkpt>
      <trkpt lat="46.50369" lon="-1.79173">
        <ele>2.85</ele>
        <time>2016-01-23T13:27:41Z</time>
      </trkpt>
      <trkpt lat="46.50379" lon="-1.79149">
        <ele>0.93</ele>
        <time>2016-01-23T13:28:05Z</time>
      </trkpt>
      <trkpt lat="46.50388" lon="-1.79126">
        <ele>1.83</ele>
        <time>2016-01-23T13:28:29Z</time>
      </trkpt>
      <trkpt lat="46.50398" lon="-1.79103">
        <ele>1.89</ele>
        <time>2016-01-23T13:28:44Z</time>
      </trkpt>
      <trkpt lat="46.50405" lon="-1.79079">
        <ele>1.73</ele>
        <time>2016-01-23T13:29:03Z</time>
      </trkpt>
      <trkpt lat="46.50414" lon="-1.79057">
        <ele>2.26</ele>
        <time>2016-01-23T13:29:21Z</time>
      </trkpt>
      <trkpt lat="46.50419" lon="-1.79031">
        <ele>3.28</ele>
        <time>2016-01-23T13:29:41Z</time>
      </trkpt>
      <trkpt lat="46.50426" lon="-1.79006">
        <ele>4.29</ele>
        <time>2016-01-23T13:30:00Z</time>
      </trkpt>
      <trkpt lat="46.50436" lon="-1.78984">
        <ele>3.02</ele>
        <time>2016-01-23T13:30:17Z</time>
      </trkpt>
      <trkpt lat="46.50444" lon="-1.78959">
        <ele>2.27</ele>
        <time>2016-01-23T13:30:35Z</time>
      </trkpt>
      <trkpt lat="46.50453" lon="-1.78936">
        <ele>2.47</ele>
        <time>2016-01-23T13:31:15Z</time>
      </trkpt>
      <trkpt lat="46.50439" lon="-1.78917">
        <ele>0.96</ele>
        <time>2016-01-23T13:32:25Z</time>
      </trkpt>
      <trkpt lat="46.50424" lon="-1.78902">
        <ele>1.32</ele>
        <time>2016-01-23T13:32:46Z</time>
      </trkpt>
      <trkpt lat="46.50407" lon="-1.78888">
        <ele>1.18</ele>
        <time>2016-01-23T13:33:06Z</time>
      </trkpt>
      <trkpt lat="46.5039" lon="-1.78877">
        <ele>-0.07</ele>
        <time>2016-01-23T13:33:23Z</time>
      </trkpt>
      <trkpt lat="46.50374" lon="-1.78865">
        <ele>0.25</ele>
        <time>2016-01-23T13:33:43Z</time>
      </trkpt>
      <trkpt lat="46.50359" lon="-1.7885">
        <ele>-0.46</ele>
        <time>2016-01-23T13:34:00Z</time>
      </trkpt>
      <trkpt lat="46.50344" lon="-1.78833">
        <ele>-0.92</ele>
        <time>2016-01-23T13:34:16Z</time>
      </trkpt>
      <trkpt lat="46.50329" lon="-1.78816">
        <ele>-1.51</ele>
        <time>2016-01-23T13:34:32Z</time>
      </trkpt>
      <trkpt lat="46.50315" lon="-1.78799">
        <ele>-1.02</ele>
        <time>2016-01-23T13:34:49Z</time>
      </trkpt>
      <trkpt lat="46.50302" lon="-1.78779">
        <ele>-0.94</ele>
        <time>2016-01-23T13:35:06Z</time>
      </trkpt>
      <trkpt lat="46.50292" lon="-1.78756">
        <ele>0.43</ele>
        <time>2016-01-23T13:35:22Z</time>
      </trkpt>
      <trkpt lat="46.50285" lon="-1.78731">
        <ele>0.49</ele>
        <time>2016-01-23T13:35:41Z</time>
      </trkpt>
      <trkpt lat="46.50271" lon="-1.78715">
        <ele>0.22</ele>
        <time>2016-01-23T13:35:58Z</time>
      </trkpt>
      <trkpt lat="46.50256" lon="-1.78699">
        <ele>2.46</ele>
        <time>2016-01-23T13:36:16Z</time>
      </trkpt>
      <trkpt lat="46.50242" lon="-1.7868">
        <ele>4.43</ele>
        <time>2016-01-23T13:36:40Z</time>
      </trkpt>
      <trkpt lat="46.50226" lon="-1.78667">
        <ele>3.71</ele>
        <time>2016-01-23T13:36:53Z</time>
      </trkpt>
      <trkpt lat="46.50212" lon="-1.7865">
        <ele>6.06</ele>
        <time>2016-01-23T13:37:06Z</time>
      </trkpt>
      <trkpt lat="46.50197" lon="-1.78632">
        <ele>9.19</ele>
        <time>2016-01-23T13:37:17Z</time>
      </trkpt>
      <trkpt lat="46.50182" lon="-1.78616">
        <ele>11.96</ele>
        <time>2016-01-23T13:37:28Z</time>
      </trkpt>
      <trkpt lat="46.50167" lon="-1.78596">
        <ele>20.46</ele>
        <time>2016-01-23T13:37:36Z</time>
      </trkpt>
      <trkpt lat="46.50153" lon="-1.78577">
        <ele>28.62</ele>
        <time>2016-01-23T13:37:44Z</time>
      </trkpt>
      <trkpt lat="46.50135" lon="-1.78573">
        <ele>24.4</ele>
        <time>2016-01-23T13:38:05Z</time>
      </trkpt>
      <trkpt lat="46.50125" lon="-1.78596">
        <ele>11.9</ele>
        <time>2016-01-23T13:38:19Z</time>
      </trkpt>
      <trkpt lat="46.50106" lon="-1.78598">
        <ele>2.96</ele>
        <time>2016-01-23T13:38:42Z</time>
      </trkpt>
      <trkpt lat="46.50087" lon="-1.78597">
        <ele>2.18</ele>
        <time>2016-01-23T13:39:10Z</time>
      </trkpt>
      <trkpt lat="46.50069" lon="-1.78602">
        <ele>3.28</ele>
        <time>2016-01-23T13:39:26Z</time>
      </trkpt>
      <trkpt lat="46.50058" lon="-1.78623">
        <ele>3.49</ele>
        <time>2016-01-23T13:39:42Z</time>
      </trkpt>
      <trkpt lat="46.50042" lon="-1.78637">
        <ele>4.31</ele>
        <time>2016-01-23T13:40:03Z</time>
      </trkpt>
      <trkpt lat="46.50028" lon="-1.78655">
        <ele>4.91</ele>
        <time>2016-01-23T13:40:22Z</time>
      </trkpt>
      <trkpt lat="46.50048" lon="-1.78663">
        <ele>4.66</ele>
        <time>2016-01-23T13:40:45Z</time>
      </trkpt>
      <trkpt lat="46.5005" lon="-1.78689">
        <ele>4.58</ele>
        <time>2016-01-23T13:42:36Z</time>
      </trkpt>
      <trkpt lat="46.50032" lon="-1.78679">
        <ele>6.14</ele>
        <time>2016-01-23T13:44:12Z</time>
      </trkpt>
      <trkpt lat="46.50016" lon="-1.78666">
        <ele>6.61</ele>
        <time>2016-01-23T13:44:20Z</time>
      </trkpt>
      <trkpt lat="46.50024" lon="-1.78693">
        <ele>3.78</ele>
        <time>2016-01-23T13:44:50Z</time>
      </trkpt>
      <trkpt lat="46.50036" lon="-1.78712">
        <ele>4.31</ele>
        <time>2016-01-23T13:44:58Z</time>
      </trkpt>
      <trkpt lat="46.50043" lon="-1.78682">
        <ele>3.82</ele>
        <time>2016-01-23T13:45:06Z</time>
      </trkpt>
      <trkpt lat="46.50043" lon="-1.7865">
        <ele>4.55</ele>
        <time>2016-01-23T13:45:15Z</time>
      </trkpt>
      <trkpt lat="46.50025" lon="-1.78644">
        <ele>7.93</ele>
        <time>2016-01-23T13:45:48Z</time>
      </trkpt>
      <trkpt lat="46.50014" lon="-1.78623">
        <ele>4.92</ele>
        <time>2016-01-23T13:46:21Z</time>
      </trkpt>
      <trkpt lat="46.50015" lon="-1.78595">
        <ele>2.76</ele>
        <time>2016-01-23T13:46:48Z</time>
      </trkpt>
      <trkpt lat="46.5" lon="-1.7858">
        <ele>2.48</ele>
        <time>2016-01-23T13:47:09Z</time>
      </trkpt>
      <trkpt lat="46.49987" lon="-1.7856">
        <ele>1.6</ele>
        <time>2016-01-23T13:47:32Z</time>
      </trkpt>
      <trkpt lat="46.49974" lon="-1.78542">
        <ele>2.2</ele>
        <time>2016-01-23T13:47:51Z</time>
      </trkpt>
      <trkpt lat="46.4996" lon="-1.78524">
        <ele>2.91</ele>
        <time>2016-01-23T13:48:07Z</time>
      </trkpt>
      <trkpt lat="46.49942" lon="-1.78514">
        <ele>2.98</ele>
        <time>2016-01-23T13:48:25Z</time>
      </trkpt>
      <trkpt lat="46.49923" lon="-1.7851">
        <ele>6.93</ele>
        <time>2016-01-23T13:48:43Z</time>
      </trkpt>
      <trkpt lat="46.49906" lon="-1.78501">
        <ele>6.87</ele>
        <time>2016-01-23T13:48:56Z</time>
      </trkpt>
      <trkpt lat="46.49888" lon="-1.78497">
        <ele>8.06</ele>
        <time>2016-01-23T13:49:12Z</time>
      </trkpt>
      <trkpt lat="46.49872" lon="-1.78509">
        <ele>5.17</ele>
        <time>2016-01-23T13:49:30Z</time>
      </trkpt>
      <trkpt lat="46.49857" lon="-1.78524">
        <ele>6.25</ele>
        <time>2016-01-23T13:49:45Z</time>
      </trkpt>
      <trkpt lat="46.49839" lon="-1.78512">
        <ele>7.16</ele>
        <time>2016-01-23T13:50:01Z</time>
      </trkpt>
      <trkpt lat="46.49822" lon="-1.78519">
        <ele>10.08</ele>
        <time>2016-01-23T13:50:16Z</time>
      </trkpt>
      <trkpt lat="46.49805" lon="-1.7853">
        <ele>13.3</ele>
        <time>2016-01-23T13:50:30Z</time>
      </trkpt>
      <trkpt lat="46.49788" lon="-1.78536">
        <ele>11.96</ele>
        <time>2016-01-23T13:50:42Z</time>
      </trkpt>
      <trkpt lat="46.49778" lon="-1.78559">
        <ele>14.1</ele>
        <time>2016-01-23T13:50:59Z</time>
      </trkpt>
      <trkpt lat="46.4976" lon="-1.78567">
        <ele>9.49</ele>
        <time>2016-01-23T13:54:11Z</time>
      </trkpt>
      <trkpt lat="46.49742" lon="-1.78565">
        <ele>7.54</ele>
        <time>2016-01-23T13:54:54Z</time>
      </trkpt>
      <trkpt lat="46.49724" lon="-1.78565">
        <ele>7.37</ele>
        <time>2016-01-23T13:55:06Z</time>
      </trkpt>
      <trkpt lat="46.49705" lon="-1.78565">
        <ele>5.39</ele>
        <time>2016-01-23T13:55:21Z</time>
      </trkpt>
      <trkpt lat="46.49691" lon="-1.78546">
        <ele>7.26</ele>
        <time>2016-01-23T13:55:50Z</time>
      </trkpt>
      <trkpt lat="46.49691" lon="-1.7852">
        <ele>4.79</ele>
        <time>2016-01-23T13:56:22Z</time>
      </trkpt>
      <trkpt lat="46.49687" lon="-1.78493">
        <ele>3.99</ele>
        <time>2016-01-23T13:56:35Z</time>
      </trkpt>
      <trkpt lat="46.49691" lon="-1.78467">
        <ele>7.66</ele>
        <time>2016-01-23T13:57:09Z</time>
      </trkpt>
      <trkpt lat="46.49685" lon="-1.78441">
        <ele>9.34</ele>
        <time>2016-01-23T13:57:32Z</time>
      </trkpt>
      <trkpt lat="46.49678" lon="-1.78416">
        <ele>10.82</ele>
        <time>2016-01-23T13:57:52Z</time>
      </trkpt>
      <trkpt lat="46.49685" lon="-1.78392">
        <ele>6.19</ele>
        <time>2016-01-23T13:58:06Z</time>
      </trkpt>
      <trkpt lat="46.49681" lon="-1.78366">
        <ele>5.42</ele>
        <time>2016-01-23T13:58:24Z</time>
      </trkpt>
      <trkpt lat="46.49671" lon="-1.78344">
        <ele>6.72</ele>
        <time>2016-01-23T13:58:48Z</time>
      </trkpt>
      <trkpt lat="46.49658" lon="-1.78363">
        <ele>7.51</ele>
        <time>2016-01-23T14:01:15Z</time>
      </trkpt>
      <trkpt lat="46.49662" lon="-1.78388">
        <ele>5.28</ele>
        <time>2016-01-23T14:01:34Z</time>
      </trkpt>
      <trkpt lat="46.49656" lon="-1.78414">
        <ele>11.65</ele>
        <time>2016-01-23T14:02:04Z</time>
      </trkpt>
      <trkpt lat="46.49637" lon="-1.78414">
        <ele>12.51</ele>
        <time>2016-01-23T14:02:34Z</time>
      </trkpt>
      <trkpt lat="46.49619" lon="-1.78418">
        <ele>14.9</ele>
        <time>2016-01-23T14:02:47Z</time>
      </trkpt>
      <trkpt lat="46.496" lon="-1.78415">
        <ele>16.9</ele>
        <time>2016-01-23T14:04:47Z</time>
      </trkpt>
      <trkpt lat="46.49581" lon="-1.78412">
        <ele>18.77</ele>
        <time>2016-01-23T14:06:12Z</time>
      </trkpt>
      <trkpt lat="46.49562" lon="-1.78413">
        <ele>22.37</ele>
        <time>2016-01-23T14:06:47Z</time>
      </trkpt>
      <trkpt lat="46.49544" lon="-1.7841">
        <ele>21.82</ele>
        <time>2016-01-23T14:07:11Z</time>
      </trkpt>
      <trkpt lat="46.49533" lon="-1.78388">
        <ele>11.85</ele>
        <time>2016-01-23T14:09:35Z</time>
      </trkpt>
      <trkpt lat="46.49529" lon="-1.78362">
        <ele>13.2</ele>
        <time>2016-01-23T14:11:33Z</time>
      </trkpt>
      <trkpt lat="46.49534" lon="-1.78336">
        <ele>13.31</ele>
        <time>2016-01-23T14:13:53Z</time>
      </trkpt>
      <trkpt lat="46.49516" lon="-1.78345">
        <ele>14.16</ele>
        <time>2016-01-23T14:22:28Z</time>
      </trkpt>
      <trkpt lat="46.49496" lon="-1.7835">
        <ele>7.94</ele>
        <time>2016-01-23T14:22:48Z</time>
      </trkpt>
      <trkpt lat="46.49478" lon="-1.7835">
        <ele>6.42</ele>
        <time>2016-01-23T14:23:01Z</time>
      </trkpt>
      <trkpt lat="46.49462" lon="-1.78335">
        <ele>7.35</ele>
        <time>2016-01-23T14:26:28Z</time>
      </trkpt>
      <trkpt lat="46.49461" lon="-1.78309">
        <ele>9.09</ele>
        <time>2016-01-23T14:26:48Z</time>
      </trkpt>
      <trkpt lat="46.49459" lon="-1.78282">
        <ele>8.49</ele>
        <time>2016-01-23T14:27:10Z</time>
      </trkpt>
      <trkpt lat="46.49455" lon="-1.78255">
        <ele>10.56</ele>
        <time>2016-01-23T14:27:24Z</time>
      </trkpt>
      <trkpt lat="46.49446" lon="-1.78231">
        <ele>9.84</ele>
        <time>2016-01-23T14:27:41Z</time>
      </trkpt>
      <trkpt lat="46.49443" lon="-1.78205">
        <ele>10.61</ele>
        <time>2016-01-23T14:27:57Z</time>
      </trkpt>
      <trkpt lat="46.49441" lon="-1.78178">
        <ele>9.93</ele>
        <time>2016-01-23T14:28:13Z</time>
      </trkpt>
      <trkpt lat="46.49437" lon="-1.78151">
        <ele>11.41</ele>
        <time>2016-01-23T14:28:28Z</time>
      </trkpt>
      <trkpt lat="46.49433" lon="-1.78125">
        <ele>12.8</ele>
        <time>2016-01-23T14:28:43Z</time>
      </trkpt>
      <trkpt lat="46.49429" lon="-1.78099">
        <ele>8.52</ele>
        <time>2016-01-23T14:29:05Z</time>
      </trkpt>
      <trkpt lat="46.49416" lon="-1.78081">
        <ele>9.93</ele>
        <time>2016-01-23T14:29:20Z</time>
      </trkpt>
      <trkpt lat="46.49408" lon="-1.78056">
        <ele>11.39</ele>
        <time>2016-01-23T14:29:34Z</time>
      </trkpt>
      <trkpt lat="46.494" lon="-1.78032">
        <ele>12.84</ele>
        <time>2016-01-23T14:29:49Z</time>
      </trkpt>
      <trkpt lat="46.49392" lon="-1.78007">
        <ele>15.21</ele>
        <time>2016-01-23T14:30:03Z</time>
      </trkpt>
      <trkpt lat="46.49383" lon="-1.77983">
        <ele>18.07</ele>
        <time>2016-01-23T14:30:18Z</time>
      </trkpt>
      <trkpt lat="46.49374" lon="-1.7796">
        <ele>16.85</ele>
        <time>2016-01-23T14:30:34Z</time>
      </trkpt>
      <trkpt lat="46.49368" lon="-1.77934">
        <ele>15.83</ele>
        <time>2016-01-23T14:30:53Z</time>
      </trkpt>
      <trkpt lat="46.49362" lon="-1.77908">
        <ele>18.77</ele>
        <time>2016-01-23T14:31:07Z</time>
      </trkpt>
      <trkpt lat="46.49355" lon="-1.77884">
        <ele>21.04</ele>
        <time>2016-01-23T14:31:22Z</time>
      </trkpt>
      <trkpt lat="46.49343" lon="-1.77863">
        <ele>20.75</ele>
        <time>2016-01-23T14:31:39Z</time>
      </trkpt>
      <trkpt lat="46.49334" lon="-1.7784">
        <ele>21.65</ele>
        <time>2016-01-23T14:31:56Z</time>
      </trkpt>
      <trkpt lat="46.49326" lon="-1.77816">
        <ele>23.26</ele>
        <time>2016-01-23T14:32:11Z</time>
      </trkpt>
      <trkpt lat="46.49318" lon="-1.77791">
        <ele>21.59</ele>
        <time>2016-01-23T14:32:27Z</time>
      </trkpt>
      <trkpt lat="46.49311" lon="-1.77766">
        <ele>21.02</ele>
        <time>2016-01-23T14:32:44Z</time>
      </trkpt>
      <trkpt lat="46.49301" lon="-1.77744">
        <ele>22.03</ele>
        <time>2016-01-23T14:33:00Z</time>
      </trkpt>
      <trkpt lat="46.49293" lon="-1.77719">
        <ele>26.99</ele>
        <time>2016-01-23T14:33:13Z</time>
      </trkpt>
      <trkpt lat="46.4928" lon="-1.77698">
        <ele>28.23</ele>
        <time>2016-01-23T14:33:28Z</time>
      </trkpt>
      <trkpt lat="46.49268" lon="-1.77678">
        <ele>26.66</ele>
        <time>2016-01-23T14:33:43Z</time>
      </trkpt>
      <trkpt lat="46.49257" lon="-1.77656">
        <ele>26</ele>
        <time>2016-01-23T14:34:02Z</time>
      </trkpt>
      <trkpt lat="46.49245" lon="-1.77634">
        <ele>26.64</ele>
        <time>2016-01-23T14:34:17Z</time>
      </trkpt>
      <trkpt lat="46.49233" lon="-1.77613">
        <ele>22.14</ele>
        <time>2016-01-23T14:34:33Z</time>
      </trkpt>
      <trkpt lat="46.49218" lon="-1.77596">
        <ele>23.89</ele>
        <time>2016-01-23T14:34:47Z</time>
      </trkpt>
      <trkpt lat="46.49204" lon="-1.77578">
        <ele>21.15</ele>
        <time>2016-01-23T14:35:02Z</time>
      </trkpt>
      <trkpt lat="46.49187" lon="-1.77563">
        <ele>17.5</ele>
        <time>2016-01-23T14:35:21Z</time>
      </trkpt>
      <trkpt lat="46.49174" lon="-1.77545">
        <ele>17.67</ele>
        <time>2016-01-23T14:35:35Z</time>
      </trkpt>
      <trkpt lat="46.49161" lon="-1.77524">
        <ele>20.34</ele>
        <time>2016-01-23T14:35:48Z</time>
      </trkpt>
      <trkpt lat="46.49148" lon="-1.77506">
        <ele>19.2</ele>
        <time>2016-01-23T14:36:04Z</time>
      </trkpt>
      <trkpt lat="46.49135" lon="-1.77487">
        <ele>17.26</ele>
        <time>2016-01-23T14:36:22Z</time>
      </trkpt>
      <trkpt lat="46.49122" lon="-1.77468">
        <ele>14.38</ele>
        <time>2016-01-23T14:36:37Z</time>
      </trkpt>
      <trkpt lat="46.49111" lon="-1.77446">
        <ele>14.17</ele>
        <time>2016-01-23T14:36:54Z</time>
      </trkpt>
      <trkpt lat="46.49103" lon="-1.77423">
        <ele>12.98</ele>
        <time>2016-01-23T14:37:09Z</time>
      </trkpt>
      <trkpt lat="46.49093" lon="-1.77401">
        <ele>11.77</ele>
        <time>2016-01-23T14:37:25Z</time>
      </trkpt>
      <trkpt lat="46.49082" lon="-1.77378">
        <ele>10.71</ele>
        <time>2016-01-23T14:37:43Z</time>
      </trkpt>
      <trkpt lat="46.49072" lon="-1.77355">
        <ele>8.13</ele>
        <time>2016-01-23T14:38:14Z</time>
      </trkpt>
      <trkpt lat="46.49062" lon="-1.77333">
        <ele>5.93</ele>
        <time>2016-01-23T14:38:29Z</time>
      </trkpt>
      <trkpt lat="46.49053" lon="-1.77309">
        <ele>7.49</ele>
        <time>2016-01-23T14:38:44Z</time>
      </trkpt>
      <trkpt lat="46.49045" lon="-1.77284">
        <ele>5.83</ele>
        <time>2016-01-23T14:39:08Z</time>
      </trkpt>
      <trkpt lat="46.49035" lon="-1.77261">
        <ele>7.17</ele>
        <time>2016-01-23T14:39:18Z</time>
      </trkpt>
      <trkpt lat="46.49025" lon="-1.77237">
        <ele>11.63</ele>
        <time>2016-01-23T14:39:32Z</time>
      </trkpt>
      <trkpt lat="46.49017" lon="-1.77213">
        <ele>16.36</ele>
        <time>2016-01-23T14:39:45Z</time>
      </trkpt>
      <trkpt lat="46.49007" lon="-1.77192">
        <ele>17.98</ele>
        <time>2016-01-23T14:39:59Z</time>
      </trkpt>
      <trkpt lat="46.48998" lon="-1.77169">
        <ele>18.66</ele>
        <time>2016-01-23T14:40:14Z</time>
      </trkpt>
      <trkpt lat="46.48986" lon="-1.77149">
        <ele>8.25</ele>
        <time>2016-01-23T14:40:51Z</time>
      </trkpt>
      <trkpt lat="46.48975" lon="-1.77126">
        <ele>9.8</ele>
        <time>2016-01-23T14:41:06Z</time>
      </trkpt>
      <trkpt lat="46.48966" lon="-1.77103">
        <ele>11.01</ele>
        <time>2016-01-23T14:41:21Z</time>
      </trkpt>
      <trkpt lat="46.48957" lon="-1.77078">
        <ele>12.8</ele>
        <time>2016-01-23T14:41:36Z</time>
      </trkpt>
      <trkpt lat="46.48946" lon="-1.77057">
        <ele>11.65</ele>
        <time>2016-01-23T14:41:52Z</time>
      </trkpt>
      <trkpt lat="46.48935" lon="-1.77035">
        <ele>12.37</ele>
        <time>2016-01-23T14:42:08Z</time>
      </trkpt>
      <trkpt lat="46.48925" lon="-1.77012">
        <ele>13.63</ele>
        <time>2016-01-23T14:42:24Z</time>
      </trkpt>
      <trkpt lat="46.48915" lon="-1.76989">
        <ele>13.54</ele>
        <time>2016-01-23T14:42:40Z</time>
      </trkpt>
      <trkpt lat="46.48897" lon="-1.76991">
        <ele>10.95</ele>
        <time>2016-01-23T14:42:56Z</time>
      </trkpt>
      <trkpt lat="46.48878" lon="-1.76991">
        <ele>7.05</ele>
        <time>2016-01-23T14:43:09Z</time>
      </trkpt>
      <trkpt lat="46.48863" lon="-1.76974">
        <ele>5.61</ele>
        <time>2016-01-23T14:43:25Z</time>
      </trkpt>
      <trkpt lat="46.48852" lon="-1.76951">
        <ele>6.11</ele>
        <time>2016-01-23T14:43:40Z</time>
      </trkpt>
      <trkpt lat="46.48871" lon="-1.76951">
        <ele>6.83</ele>
        <time>2016-01-23T14:44:59Z</time>
      </trkpt>
      <trkpt lat="46.48886" lon="-1.76965">
        <ele>5.37</ele>
        <time>2016-01-23T14:45:17Z</time>
      </trkpt>
      <trkpt lat="46.48901" lon="-1.76981">
        <ele>5.21</ele>
        <time>2016-01-23T14:45:38Z</time>
      </trkpt>
      <trkpt lat="46.48885" lon="-1.76994">
        <ele>2.98</ele>
        <time>2016-01-23T14:47:15Z</time>
      </trkpt>
      <trkpt lat="46.48868" lon="-1.76983">
        <ele>4.01</ele>
        <time>2016-01-23T14:47:31Z</time>
      </trkpt>
      <trkpt lat="46.48857" lon="-1.76962">
        <ele>4.24</ele>
        <time>2016-01-23T14:47:45Z</time>
      </trkpt>
      <trkpt lat="46.48845" lon="-1.76942">
        <ele>4.15</ele>
        <time>2016-01-23T14:48:00Z</time>
      </trkpt>
      <trkpt lat="46.4883" lon="-1.76928">
        <ele>4.48</ele>
        <time>2016-01-23T14:48:16Z</time>
      </trkpt>
      <trkpt lat="46.48814" lon="-1.76916">
        <ele>4.94</ele>
        <time>2016-01-23T14:48:30Z</time>
      </trkpt>
      <trkpt lat="46.48797" lon="-1.76904">
        <ele>4.73</ele>
        <time>2016-01-23T14:48:46Z</time>
      </trkpt>
      <trkpt lat="46.48779" lon="-1.76901">
        <ele>3.29</ele>
        <time>2016-01-23T14:49:02Z</time>
      </trkpt>
      <trkpt lat="46.48762" lon="-1.76889">
        <ele>2.69</ele>
        <time>2016-01-23T14:49:18Z</time>
      </trkpt>
      <trkpt lat="46.48756" lon="-1.76864">
        <ele>5.31</ele>
        <time>2016-01-23T14:49:35Z</time>
      </trkpt>
      <trkpt lat="46.48739" lon="-1.76852">
        <ele>5.34</ele>
        <time>2016-01-23T14:49:58Z</time>
      </trkpt>
      <trkpt lat="46.48721" lon="-1.76843">
        <ele>5.08</ele>
        <time>2016-01-23T14:50:17Z</time>
      </trkpt>
      <trkpt lat="46.48716" lon="-1.76818">
        <ele>5.72</ele>
        <time>2016-01-23T14:50:34Z</time>
      </trkpt>
      <trkpt lat="46.48704" lon="-1.76798">
        <ele>6.24</ele>
        <time>2016-01-23T14:50:54Z</time>
      </trkpt>
      <trkpt lat="46.48688" lon="-1.76784">
        <ele>7.21</ele>
        <time>2016-01-23T14:51:14Z</time>
      </trkpt>
      <trkpt lat="46.48672" lon="-1.76769">
        <ele>6.16</ele>
        <time>2016-01-23T14:51:33Z</time>
      </trkpt>
      <trkpt lat="46.48655" lon="-1.76771">
        <ele>5.03</ele>
        <time>2016-01-23T14:52:00Z</time>
      </trkpt>
      <trkpt lat="46.48639" lon="-1.76756">
        <ele>4.56</ele>
        <time>2016-01-23T14:52:19Z</time>
      </trkpt>
      <trkpt lat="46.48641" lon="-1.7673">
        <ele>5.12</ele>
        <time>2016-01-23T14:52:38Z</time>
      </trkpt>
      <trkpt lat="46.4863" lon="-1.76708">
        <ele>9.55</ele>
        <time>2016-01-23T14:53:02Z</time>
      </trkpt>
      <trkpt lat="46.48616" lon="-1.76692">
        <ele>16.86</ele>
        <time>2016-01-23T14:53:17Z</time>
      </trkpt>
      <trkpt lat="46.48597" lon="-1.76687">
        <ele>18.22</ele>
        <time>2016-01-23T14:53:49Z</time>
      </trkpt>
      <trkpt lat="46.48584" lon="-1.76669">
        <ele>15.87</ele>
        <time>2016-01-23T14:54:06Z</time>
      </trkpt>
      <trkpt lat="46.48569" lon="-1.76654">
        <ele>18.72</ele>
        <time>2016-01-23T14:54:21Z</time>
      </trkpt>
      <trkpt lat="46.48553" lon="-1.76639">
        <ele>17.11</ele>
        <time>2016-01-23T14:54:39Z</time>
      </trkpt>
      <trkpt lat="46.48537" lon="-1.76626">
        <ele>17.12</ele>
        <time>2016-01-23T14:54:55Z</time>
      </trkpt>
      <trkpt lat="46.48521" lon="-1.76611">
        <ele>18.55</ele>
        <time>2016-01-23T14:55:12Z</time>
      </trkpt>
      <trkpt lat="46.48509" lon="-1.76589">
        <ele>10.16</ele>
        <time>2016-01-23T14:55:48Z</time>
      </trkpt>
      <trkpt lat="46.48494" lon="-1.76573">
        <ele>13.25</ele>
        <time>2016-01-23T14:56:04Z</time>
      </trkpt>
      <trkpt lat="46.48479" lon="-1.76559">
        <ele>13.59</ele>
        <time>2016-01-23T14:56:20Z</time>
      </trkpt>
      <trkpt lat="46.48463" lon="-1.76545">
        <ele>13.99</ele>
        <time>2016-01-23T14:56:37Z</time>
      </trkpt>
      <trkpt lat="46.48452" lon="-1.76525">
        <ele>8.56</ele>
        <time>2016-01-23T14:59:33Z</time>
      </trkpt>
      <trkpt lat="46.48455" lon="-1.76498">
        <ele>4.22</ele>
        <time>2016-01-23T14:59:56Z</time>
      </trkpt>
      <trkpt lat="46.48451" lon="-1.76471">
        <ele>5.32</ele>
        <time>2016-01-23T15:00:14Z</time>
      </trkpt>
      <trkpt lat="46.48443" lon="-1.76446">
        <ele>6.58</ele>
        <time>2016-01-23T15:00:32Z</time>
      </trkpt>
      <trkpt lat="46.48436" lon="-1.76422">
        <ele>7.55</ele>
        <time>2016-01-23T15:00:50Z</time>
      </trkpt>
      <trkpt lat="46.48429" lon="-1.76396">
        <ele>8.65</ele>
        <time>2016-01-23T15:01:06Z</time>
      </trkpt>
      <trkpt lat="46.48421" lon="-1.76371">
        <ele>7.97</ele>
        <time>2016-01-23T15:01:22Z</time>
      </trkpt>
      <trkpt lat="46.48411" lon="-1.76348">
        <ele>8.56</ele>
        <time>2016-01-23T15:01:40Z</time>
      </trkpt>
      <trkpt lat="46.48403" lon="-1.76325">
        <ele>8.45</ele>
        <time>2016-01-23T15:01:56Z</time>
      </trkpt>
      <trkpt lat="46.48396" lon="-1.763">
        <ele>9.31</ele>
        <time>2016-01-23T15:02:13Z</time>
      </trkpt>
      <trkpt lat="46.48385" lon="-1.76278">
        <ele>6.69</ele>
        <time>2016-01-23T15:02:28Z</time>
      </trkpt>
      <trkpt lat="46.48376" lon="-1.76254">
        <ele>6.02</ele>
        <time>2016-01-23T15:02:47Z</time>
      </trkpt>
      <trkpt lat="46.48365" lon="-1.76233">
        <ele>5.85</ele>
        <time>2016-01-23T15:03:06Z</time>
      </trkpt>
      <trkpt lat="46.4835" lon="-1.76218">
        <ele>6.22</ele>
        <time>2016-01-23T15:03:18Z</time>
      </trkpt>
      <trkpt lat="46.48334" lon="-1.76204">
        <ele>6.12</ele>
        <time>2016-01-23T15:03:35Z</time>
      </trkpt>
      <trkpt lat="46.48318" lon="-1.76191">
        <ele>6.5</ele>
        <time>2016-01-23T15:03:53Z</time>
      </trkpt>
      <trkpt lat="46.48302" lon="-1.76176">
        <ele>8.21</ele>
        <time>2016-01-23T15:04:07Z</time>
      </trkpt>
      <trkpt lat="46.48286" lon="-1.7616">
        <ele>8.69</ele>
        <time>2016-01-23T15:04:22Z</time>
      </trkpt>
      <trkpt lat="46.48271" lon="-1.76144">
        <ele>8.38</ele>
        <time>2016-01-23T15:04:39Z</time>
      </trkpt>
      <trkpt lat="46.48256" lon="-1.7613">
        <ele>8.28</ele>
        <time>2016-01-23T15:04:55Z</time>
      </trkpt>
      <trkpt lat="46.48243" lon="-1.76111">
        <ele>8.09</ele>
        <time>2016-01-23T15:05:15Z</time>
      </trkpt>
      <trkpt lat="46.48233" lon="-1.76089">
        <ele>7.24</ele>
        <time>2016-01-23T15:05:32Z</time>
      </trkpt>
      <trkpt lat="46.48228" lon="-1.76063">
        <ele>6.61</ele>
        <time>2016-01-23T15:05:47Z</time>
      </trkpt>
      <trkpt lat="46.48228" lon="-1.76037">
        <ele>6.84</ele>
        <time>2016-01-23T15:06:02Z</time>
      </trkpt>
      <trkpt lat="46.48227" lon="-1.76011">
        <ele>7.3</ele>
        <time>2016-01-23T15:06:17Z</time>
      </trkpt>
      <trkpt lat="46.48229" lon="-1.75985">
        <ele>6.78</ele>
        <time>2016-01-23T15:06:33Z</time>
      </trkpt>
      <trkpt lat="46.48234" lon="-1.7596">
        <ele>6.52</ele>
        <time>2016-01-23T15:06:49Z</time>
      </trkpt>
      <trkpt lat="46.48239" lon="-1.75933">
        <ele>6.13</ele>
        <time>2016-01-23T15:07:06Z</time>
      </trkpt>
      <trkpt lat="46.48246" lon="-1.75907">
        <ele>6.88</ele>
        <time>2016-01-23T15:07:22Z</time>
      </trkpt>
      <trkpt lat="46.48263" lon="-1.75896">
        <ele>6.99</ele>
        <time>2016-01-23T15:07:39Z</time>
      </trkpt>
      <trkpt lat="46.48281" lon="-1.75898">
        <ele>5.85</ele>
        <time>2016-01-23T15:08:02Z</time>
      </trkpt>
      <trkpt lat="46.483" lon="-1.759">
        <ele>4.1</ele>
        <time>2016-01-23T15:08:16Z</time>
      </trkpt>
      <trkpt lat="46.48318" lon="-1.75899">
        <ele>3.99</ele>
        <time>2016-01-23T15:08:31Z</time>
      </trkpt>
      <trkpt lat="46.48333" lon="-1.75883">
        <ele>5.42</ele>
        <time>2016-01-23T15:08:49Z</time>
      </trkpt>
      <trkpt lat="46.4834" lon="-1.75857">
        <ele>5.7</ele>
        <time>2016-01-23T15:09:09Z</time>
      </trkpt>
      <trkpt lat="46.48344" lon="-1.7583">
        <ele>7.59</ele>
        <time>2016-01-23T15:09:26Z</time>
      </trkpt>
      <trkpt lat="46.4835" lon="-1.75805">
        <ele>5.77</ele>
        <time>2016-01-23T15:09:41Z</time>
      </trkpt>
      <trkpt lat="46.48348" lon="-1.75779">
        <ele>6.39</ele>
        <time>2016-01-23T15:11:25Z</time>
      </trkpt>
      <trkpt lat="46.4833" lon="-1.75778">
        <ele>5.08</ele>
        <time>2016-01-23T15:15:47Z</time>
      </trkpt>
      <trkpt lat="46.48311" lon="-1.75777">
        <ele>6.08</ele>
        <time>2016-01-23T15:16:05Z</time>
      </trkpt>
      <trkpt lat="46.48292" lon="-1.75777">
        <ele>4.9</ele>
        <time>2016-01-23T15:16:23Z</time>
      </trkpt>
      <trkpt lat="46.48276" lon="-1.75788">
        <ele>4.04</ele>
        <time>2016-01-23T15:16:38Z</time>
      </trkpt>
      <trkpt lat="46.48259" lon="-1.75799">
        <ele>3.73</ele>
        <time>2016-01-23T15:16:55Z</time>
      </trkpt>
      <trkpt lat="46.48242" lon="-1.75811">
        <ele>3.58</ele>
        <time>2016-01-23T15:17:10Z</time>
      </trkpt>
      <trkpt lat="46.48225" lon="-1.75823">
        <ele>4.57</ele>
        <time>2016-01-23T15:17:28Z</time>
      </trkpt>
      <trkpt lat="46.48209" lon="-1.75836">
        <ele>5.39</ele>
        <time>2016-01-23T15:17:45Z</time>
      </trkpt>
      <trkpt lat="46.48192" lon="-1.75851">
        <ele>5.46</ele>
        <time>2016-01-23T15:18:01Z</time>
      </trkpt>
      <trkpt lat="46.48177" lon="-1.75865">
        <ele>5.52</ele>
        <time>2016-01-23T15:18:15Z</time>
      </trkpt>
      <trkpt lat="46.48163" lon="-1.75883">
        <ele>6.9</ele>
        <time>2016-01-23T15:18:31Z</time>
      </trkpt>
      <trkpt lat="46.48147" lon="-1.75898">
        <ele>7.86</ele>
        <time>2016-01-23T15:18:47Z</time>
      </trkpt>
      <trkpt lat="46.48133" lon="-1.75914">
        <ele>7.33</ele>
        <time>2016-01-23T15:19:06Z</time>
      </trkpt>
      <trkpt lat="46.4812" lon="-1.75934">
        <ele>6.56</ele>
        <time>2016-01-23T15:19:22Z</time>
      </trkpt>
      <trkpt lat="46.48104" lon="-1.75949">
        <ele>7.92</ele>
        <time>2016-01-23T15:19:38Z</time>
      </trkpt>
      <trkpt lat="46.48091" lon="-1.75968">
        <ele>9.03</ele>
        <time>2016-01-23T15:19:52Z</time>
      </trkpt>
      <trkpt lat="46.4808" lon="-1.7599">
        <ele>7.17</ele>
        <time>2016-01-23T15:20:09Z</time>
      </trkpt>
      <trkpt lat="46.48071" lon="-1.76013">
        <ele>6.94</ele>
        <time>2016-01-23T15:20:25Z</time>
      </trkpt>
      <trkpt lat="46.48061" lon="-1.76035">
        <ele>6.27</ele>
        <time>2016-01-23T15:20:40Z</time>
      </trkpt>
      <trkpt lat="46.48043" lon="-1.76046">
        <ele>8.34</ele>
        <time>2016-01-23T15:20:58Z</time>
      </trkpt>
      <trkpt lat="46.48025" lon="-1.76038">
        <ele>8.33</ele>
        <time>2016-01-23T15:21:14Z</time>
      </trkpt>
      <trkpt lat="46.48007" lon="-1.76036">
        <ele>9.14</ele>
        <time>2016-01-23T15:21:29Z</time>
      </trkpt>
      <trkpt lat="46.47988" lon="-1.76036">
        <ele>11.25</ele>
        <time>2016-01-23T15:21:45Z</time>
      </trkpt>
      <trkpt lat="46.4797" lon="-1.76034">
        <ele>12.45</ele>
        <time>2016-01-23T15:22:00Z</time>
      </trkpt>
      <trkpt lat="46.47952" lon="-1.76033">
        <ele>13.01</ele>
        <time>2016-01-23T15:22:15Z</time>
      </trkpt>
      <trkpt lat="46.47933" lon="-1.7603">
        <ele>13.61</ele>
        <time>2016-01-23T15:22:31Z</time>
      </trkpt>
      <trkpt lat="46.47914" lon="-1.76025">
        <ele>14.92</ele>
        <time>2016-01-23T15:22:47Z</time>
      </trkpt>
      <trkpt lat="46.47896" lon="-1.7602">
        <ele>15.91</ele>
        <time>2016-01-23T15:23:01Z</time>
      </trkpt>
      <trkpt lat="46.47878" lon="-1.76013">
        <ele>14.63</ele>
        <time>2016-01-23T15:23:17Z</time>
      </trkpt>
      <trkpt lat="46.4786" lon="-1.76019">
        <ele>11.79</ele>
        <time>2016-01-23T15:23:37Z</time>
      </trkpt>
      <trkpt lat="46.47843" lon="-1.76033">
        <ele>11.35</ele>
        <time>2016-01-23T15:23:52Z</time>
      </trkpt>
      <trkpt lat="46.47826" lon="-1.76024">
        <ele>11.41</ele>
        <time>2016-01-23T15:24:07Z</time>
      </trkpt>
      <trkpt lat="46.4781" lon="-1.76009">
        <ele>10.97</ele>
        <time>2016-01-23T15:24:22Z</time>
      </trkpt>
      <trkpt lat="46.47795" lon="-1.75995">
        <ele>10.69</ele>
        <time>2016-01-23T15:24:37Z</time>
      </trkpt>
      <trkpt lat="46.4778" lon="-1.75978">
        <ele>10.4</ele>
        <time>2016-01-23T15:24:52Z</time>
      </trkpt>
      <trkpt lat="46.47765" lon="-1.7596">
        <ele>10.64</ele>
        <time>2016-01-23T15:25:07Z</time>
      </trkpt>
      <trkpt lat="46.47758" lon="-1.75935">
        <ele>7.57</ele>
        <time>2016-01-23T15:25:23Z</time>
      </trkpt>
      <trkpt lat="46.47749" lon="-1.75912">
        <ele>7.09</ele>
        <time>2016-01-23T15:25:40Z</time>
      </trkpt>
      <trkpt lat="46.47737" lon="-1.75892">
        <ele>7.03</ele>
        <time>2016-01-23T15:25:55Z</time>
      </trkpt>
      <trkpt lat="46.47724" lon="-1.75873">
        <ele>7.39</ele>
        <time>2016-01-23T15:26:09Z</time>
      </trkpt>
      <trkpt lat="46.47712" lon="-1.75852">
        <ele>7.02</ele>
        <time>2016-01-23T15:26:24Z</time>
      </trkpt>
      <trkpt lat="46.47699" lon="-1.75832">
        <ele>6.59</ele>
        <time>2016-01-23T15:26:39Z</time>
      </trkpt>
      <trkpt lat="46.47686" lon="-1.75812">
        <ele>7.37</ele>
        <time>2016-01-23T15:26:54Z</time>
      </trkpt>
      <trkpt lat="46.47672" lon="-1.75794">
        <ele>9.14</ele>
        <time>2016-01-23T15:27:08Z</time>
      </trkpt>
      <trkpt lat="46.47657" lon="-1.75779">
        <ele>10.79</ele>
        <time>2016-01-23T15:27:22Z</time>
      </trkpt>
      <trkpt lat="46.47641" lon="-1.75765">
        <ele>11.69</ele>
        <time>2016-01-23T15:27:37Z</time>
      </trkpt>
      <trkpt lat="46.47625" lon="-1.75752">
        <ele>12.39</ele>
        <time>2016-01-23T15:27:52Z</time>
      </trkpt>
      <trkpt lat="46.47612" lon="-1.75734">
        <ele>13.29</ele>
        <time>2016-01-23T15:28:06Z</time>
      </trkpt>
      <trkpt lat="46.47598" lon="-1.75714">
        <ele>13.36</ele>
        <time>2016-01-23T15:28:22Z</time>
      </trkpt>
      <trkpt lat="46.47584" lon="-1.75696">
        <ele>12.63</ele>
        <time>2016-01-23T15:28:37Z</time>
      </trkpt>
      <trkpt lat="46.47571" lon="-1.75679">
        <ele>12.85</ele>
        <time>2016-01-23T15:28:52Z</time>
      </trkpt>
      <trkpt lat="46.47557" lon="-1.75661">
        <ele>12.09</ele>
        <time>2016-01-23T15:29:07Z</time>
      </trkpt>
      <trkpt lat="46.47543" lon="-1.75643">
        <ele>10.23</ele>
        <time>2016-01-23T15:29:23Z</time>
      </trkpt>
      <trkpt lat="46.4753" lon="-1.75623">
        <ele>8.79</ele>
        <time>2016-01-23T15:29:37Z</time>
      </trkpt>
      <trkpt lat="46.47519" lon="-1.75602">
        <ele>8.59</ele>
        <time>2016-01-23T15:29:53Z</time>
      </trkpt>
      <trkpt lat="46.4751" lon="-1.75578">
        <ele>9.17</ele>
        <time>2016-01-23T15:30:09Z</time>
      </trkpt>
      <trkpt lat="46.47504" lon="-1.75553">
        <ele>8.69</ele>
        <time>2016-01-23T15:30:25Z</time>
      </trkpt>
      <trkpt lat="46.47497" lon="-1.75527">
        <ele>9</ele>
        <time>2016-01-23T15:30:41Z</time>
      </trkpt>
      <trkpt lat="46.4749" lon="-1.75501">
        <ele>7.52</ele>
        <time>2016-01-23T15:30:57Z</time>
      </trkpt>
      <trkpt lat="46.47483" lon="-1.75476">
        <ele>6.1</ele>
        <time>2016-01-23T15:31:13Z</time>
      </trkpt>
      <trkpt lat="46.47479" lon="-1.7545">
        <ele>5.65</ele>
        <time>2016-01-23T15:31:29Z</time>
      </trkpt>
      <trkpt lat="46.47476" lon="-1.75423">
        <ele>5.4</ele>
        <time>2016-01-23T15:31:45Z</time>
      </trkpt>
      <trkpt lat="46.47473" lon="-1.75397">
        <ele>4.9</ele>
        <time>2016-01-23T15:32:00Z</time>
      </trkpt>
      <trkpt lat="46.47468" lon="-1.75371">
        <ele>4.51</ele>
        <time>2016-01-23T15:32:15Z</time>
      </trkpt>
      <trkpt lat="46.47461" lon="-1.75346">
        <ele>5.21</ele>
        <time>2016-01-23T15:32:31Z</time>
      </trkpt>
      <trkpt lat="46.47447" lon="-1.75329">
        <ele>6.1</ele>
        <time>2016-01-23T15:32:47Z</time>
      </trkpt>
      <trkpt lat="46.47445" lon="-1.75301">
        <ele>6.35</ele>
        <time>2016-01-23T15:33:05Z</time>
      </trkpt>
      <trkpt lat="46.47443" lon="-1.75275">
        <ele>6.36</ele>
        <time>2016-01-23T15:33:20Z</time>
      </trkpt>
      <trkpt lat="46.47438" lon="-1.75248">
        <ele>6.25</ele>
        <time>2016-01-23T15:33:36Z</time>
      </trkpt>
      <trkpt lat="46.47431" lon="-1.75223">
        <ele>6.35</ele>
        <time>2016-01-23T15:33:51Z</time>
      </trkpt>
      <trkpt lat="46.4743" lon="-1.75197">
        <ele>6.95</ele>
        <time>2016-01-23T15:34:06Z</time>
      </trkpt>
      <trkpt lat="46.47422" lon="-1.75172">
        <ele>7.96</ele>
        <time>2016-01-23T15:34:21Z</time>
      </trkpt>
      <trkpt lat="46.4741" lon="-1.7515">
        <ele>8.62</ele>
        <time>2016-01-23T15:34:36Z</time>
      </trkpt>
      <trkpt lat="46.47399" lon="-1.75128">
        <ele>8.71</ele>
        <time>2016-01-23T15:34:52Z</time>
      </trkpt>
      <trkpt lat="46.47387" lon="-1.75108">
        <ele>7.85</ele>
        <time>2016-01-23T15:35:06Z</time>
      </trkpt>
      <trkpt lat="46.47378" lon="-1.75085">
        <ele>8.78</ele>
        <time>2016-01-23T15:35:20Z</time>
      </trkpt>
      <trkpt lat="46.47374" lon="-1.75058">
        <ele>8.53</ele>
        <time>2016-01-23T15:35:36Z</time>
      </trkpt>
      <trkpt lat="46.47375" lon="-1.7503">
        <ele>7.67</ele>
        <time>2016-01-23T15:35:52Z</time>
      </trkpt>
      <trkpt lat="46.47363" lon="-1.75009">
        <ele>7.76</ele>
        <time>2016-01-23T15:36:07Z</time>
      </trkpt>
      <trkpt lat="46.47349" lon="-1.7499">
        <ele>7.1</ele>
        <time>2016-01-23T15:36:21Z</time>
      </trkpt>
      <trkpt lat="46.4734" lon="-1.74967">
        <ele>7.78</ele>
        <time>2016-01-23T15:36:35Z</time>
      </trkpt>
      <trkpt lat="46.47338" lon="-1.74941">
        <ele>7.32</ele>
        <time>2016-01-23T15:36:50Z</time>
      </trkpt>
      <trkpt lat="46.47331" lon="-1.74916">
        <ele>6.47</ele>
        <time>2016-01-23T15:37:05Z</time>
      </trkpt>
      <trkpt lat="46.47333" lon="-1.74889">
        <ele>4.69</ele>
        <time>2016-01-23T15:38:51Z</time>
      </trkpt>
      <trkpt lat="46.47338" lon="-1.74864">
        <ele>4.39</ele>
        <time>2016-01-23T15:39:05Z</time>
      </trkpt>
      <trkpt lat="46.4734" lon="-1.74837">
        <ele>4.39</ele>
        <time>2016-01-23T15:39:20Z</time>
      </trkpt>
      <trkpt lat="46.47335" lon="-1.7481">
        <ele>4.7</ele>
        <time>2016-01-23T15:39:35Z</time>
      </trkpt>
      <trkpt lat="46.47321" lon="-1.74792">
        <ele>5.03</ele>
        <time>2016-01-23T15:39:49Z</time>
      </trkpt>
      <trkpt lat="46.47311" lon="-1.7477">
        <ele>5.89</ele>
        <time>2016-01-23T15:40:04Z</time>
      </trkpt>
      <trkpt lat="46.47297" lon="-1.74752">
        <ele>5.51</ele>
        <time>2016-01-23T15:40:21Z</time>
      </trkpt>
      <trkpt lat="46.4728" lon="-1.74746">
        <ele>6.96</ele>
        <time>2016-01-23T15:40:41Z</time>
      </trkpt>
      <trkpt lat="46.47264" lon="-1.7473">
        <ele>6.61</ele>
        <time>2016-01-23T15:40:56Z</time>
      </trkpt>
      <trkpt lat="46.47251" lon="-1.74712">
        <ele>4.96</ele>
        <time>2016-01-23T15:41:10Z</time>
      </trkpt>
      <trkpt lat="46.47237" lon="-1.74695">
        <ele>6.1</ele>
        <time>2016-01-23T15:41:28Z</time>
      </trkpt>
      <trkpt lat="46.47226" lon="-1.74672">
        <ele>6.03</ele>
        <time>2016-01-23T15:41:45Z</time>
      </trkpt>
      <trkpt lat="46.47208" lon="-1.74665">
        <ele>6.39</ele>
        <time>2016-01-23T15:45:08Z</time>
      </trkpt>
      <trkpt lat="46.47189" lon="-1.74668">
        <ele>6.12</ele>
        <time>2016-01-23T15:45:34Z</time>
      </trkpt>
      <trkpt lat="46.47197" lon="-1.74643">
        <ele>4.58</ele>
        <time>2016-01-23T15:48:44Z</time>
      </trkpt>
      <trkpt lat="46.47184" lon="-1.74624">
        <ele>5.76</ele>
        <time>2016-01-23T15:49:47Z</time>
      </trkpt>
      <trkpt lat="46.47198" lon="-1.74607">
        <ele>6.68</ele>
        <time>2016-01-23T15:52:13Z</time>
      </trkpt>
      <trkpt lat="46.47192" lon="-1.74582">
        <ele>5.92</ele>
        <time>2016-01-23T15:52:36Z</time>
      </trkpt>
      <trkpt lat="46.4718" lon="-1.74561">
        <ele>4.95</ele>
        <time>2016-01-23T15:52:57Z</time>
      </trkpt>
      <trkpt lat="46.47168" lon="-1.74542">
        <ele>3.92</ele>
        <time>2016-01-23T15:53:16Z</time>
      </trkpt>
      <trkpt lat="46.47156" lon="-1.74521">
        <ele>4.51</ele>
        <time>2016-01-23T15:53:38Z</time>
      </trkpt>
      <trkpt lat="46.47142" lon="-1.74504">
        <ele>4.56</ele>
        <time>2016-01-23T15:53:58Z</time>
      </trkpt>
      <trkpt lat="46.4713" lon="-1.74485">
        <ele>4.07</ele>
        <time>2016-01-23T15:54:16Z</time>
      </trkpt>
      <trkpt lat="46.47118" lon="-1.74464">
        <ele>3.93</ele>
        <time>2016-01-23T15:54:34Z</time>
      </trkpt>
      <trkpt lat="46.47108" lon="-1.7444">
        <ele>3.86</ele>
        <time>2016-01-23T15:54:52Z</time>
      </trkpt>
      <trkpt lat="46.471" lon="-1.74417">
        <ele>4.3</ele>
        <time>2016-01-23T15:55:10Z</time>
      </trkpt>
      <trkpt lat="46.47087" lon="-1.74399">
        <ele>4.37</ele>
        <time>2016-01-23T15:55:26Z</time>
      </trkpt>
      <trkpt lat="46.4707" lon="-1.74387">
        <ele>4.27</ele>
        <time>2016-01-23T15:55:43Z</time>
      </trkpt>
      <trkpt lat="46.47057" lon="-1.74368">
        <ele>4.52</ele>
        <time>2016-01-23T15:56:01Z</time>
      </trkpt>
      <trkpt lat="46.47048" lon="-1.74345">
        <ele>4.66</ele>
        <time>2016-01-23T15:56:19Z</time>
      </trkpt>
      <trkpt lat="46.47036" lon="-1.74326">
        <ele>5.15</ele>
        <time>2016-01-23T15:56:35Z</time>
      </trkpt>
      <trkpt lat="46.47025" lon="-1.74303">
        <ele>6.18</ele>
        <time>2016-01-23T15:56:55Z</time>
      </trkpt>
      <trkpt lat="46.47014" lon="-1.74283">
        <ele>6.79</ele>
        <time>2016-01-23T15:57:12Z</time>
      </trkpt>
      <trkpt lat="46.46999" lon="-1.74265">
        <ele>7.33</ele>
        <time>2016-01-23T15:57:29Z</time>
      </trkpt>
      <trkpt lat="46.46987" lon="-1.74244">
        <ele>7.76</ele>
        <time>2016-01-23T15:57:46Z</time>
      </trkpt>
      <trkpt lat="46.46978" lon="-1.74221">
        <ele>8</ele>
        <time>2016-01-23T15:58:05Z</time>
      </trkpt>
      <trkpt lat="46.46963" lon="-1.74204">
        <ele>9.75</ele>
        <time>2016-01-23T15:58:24Z</time>
      </trkpt>
      <trkpt lat="46.46947" lon="-1.74192">
        <ele>10.35</ele>
        <time>2016-01-23T15:58:41Z</time>
      </trkpt>
      <trkpt lat="46.46931" lon="-1.7418">
        <ele>11.14</ele>
        <time>2016-01-23T15:58:58Z</time>
      </trkpt>
      <trkpt lat="46.46916" lon="-1.74164">
        <ele>11.44</ele>
        <time>2016-01-23T15:59:17Z</time>
      </trkpt>
      <trkpt lat="46.469" lon="-1.74151">
        <ele>11.05</ele>
        <time>2016-01-23T15:59:32Z</time>
      </trkpt>
      <trkpt lat="46.46886" lon="-1.74134">
        <ele>10.46</ele>
        <time>2016-01-23T15:59:49Z</time>
      </trkpt>
      <trkpt lat="46.46872" lon="-1.74116">
        <ele>10.97</ele>
        <time>2016-01-23T16:00:06Z</time>
      </trkpt>
      <trkpt lat="46.46862" lon="-1.74092">
        <ele>9.82</ele>
        <time>2016-01-23T16:00:24Z</time>
      </trkpt>
      <trkpt lat="46.46855" lon="-1.74068">
        <ele>9.48</ele>
        <time>2016-01-23T16:00:40Z</time>
      </trkpt>
      <trkpt lat="46.46848" lon="-1.74043">
        <ele>9.22</ele>
        <time>2016-01-23T16:00:56Z</time>
      </trkpt>
      <trkpt lat="46.46844" lon="-1.74017">
        <ele>9.11</ele>
        <time>2016-01-23T16:01:15Z</time>
      </trkpt>
      <trkpt lat="46.46844" lon="-1.73991">
        <ele>10.36</ele>
        <time>2016-01-23T16:01:28Z</time>
      </trkpt>
      <trkpt lat="46.46846" lon="-1.73964">
        <ele>11.69</ele>
        <time>2016-01-23T16:01:43Z</time>
      </trkpt>
      <trkpt lat="46.46843" lon="-1.73938">
        <ele>10.99</ele>
        <time>2016-01-23T16:01:57Z</time>
      </trkpt>
      <trkpt lat="46.46838" lon="-1.73913">
        <ele>12.15</ele>
        <time>2016-01-23T16:02:11Z</time>
      </trkpt>
      <trkpt lat="46.46831" lon="-1.73888">
        <ele>11.99</ele>
        <time>2016-01-23T16:02:27Z</time>
      </trkpt>
      <trkpt lat="46.46829" lon="-1.73862">
        <ele>9.32</ele>
        <time>2016-01-23T16:02:44Z</time>
      </trkpt>
      <trkpt lat="46.4683" lon="-1.73835">
        <ele>6.94</ele>
        <time>2016-01-23T16:03:01Z</time>
      </trkpt>
      <trkpt lat="46.46836" lon="-1.73809">
        <ele>6.34</ele>
        <time>2016-01-23T16:03:15Z</time>
      </trkpt>
      <trkpt lat="46.46842" lon="-1.73784">
        <ele>4.9</ele>
        <time>2016-01-23T16:03:29Z</time>
      </trkpt>
      <trkpt lat="46.46844" lon="-1.73757">
        <ele>5.58</ele>
        <time>2016-01-23T16:03:44Z</time>
      </trkpt>
      <trkpt lat="46.4684" lon="-1.73731">
        <ele>4.87</ele>
        <time>2016-01-23T16:04:01Z</time>
      </trkpt>
      <trkpt lat="46.46829" lon="-1.73708">
        <ele>3.81</ele>
        <time>2016-01-23T16:04:17Z</time>
      </trkpt>
      <trkpt lat="46.46815" lon="-1.73692">
        <ele>2.99</ele>
        <time>2016-01-23T16:04:37Z</time>
      </trkpt>
      <trkpt lat="46.46798" lon="-1.73685">
        <ele>5.09</ele>
        <time>2016-01-23T16:04:58Z</time>
      </trkpt>
      <trkpt lat="46.4678" lon="-1.73687">
        <ele>5.3</ele>
        <time>2016-01-23T16:05:15Z</time>
      </trkpt>
      <trkpt lat="46.46761" lon="-1.73683">
        <ele>6.45</ele>
        <time>2016-01-23T16:05:33Z</time>
      </trkpt>
      <trkpt lat="46.46744" lon="-1.7367">
        <ele>7.46</ele>
        <time>2016-01-23T16:05:50Z</time>
      </trkpt>
      <trkpt lat="46.46732" lon="-1.73651">
        <ele>7.93</ele>
        <time>2016-01-23T16:06:07Z</time>
      </trkpt>
      <trkpt lat="46.46719" lon="-1.73632">
        <ele>7.49</ele>
        <time>2016-01-23T16:06:24Z</time>
      </trkpt>
      <trkpt lat="46.46707" lon="-1.73611">
        <ele>7.45</ele>
        <time>2016-01-23T16:06:42Z</time>
      </trkpt>
      <trkpt lat="46.46695" lon="-1.73591">
        <ele>7.9</ele>
        <time>2016-01-23T16:07:01Z</time>
      </trkpt>
      <trkpt lat="46.46677" lon="-1.73582">
        <ele>12.25</ele>
        <time>2016-01-23T16:07:21Z</time>
        <extensions>
          <visugpx:TrkExtension xmlns:visugpx="https://www.visugpx.com/editgpx/">
            <visugpx:node>1</visugpx:node>
            </visugpx:TrkExtension>
        </extensions>
      </trkpt>
    </trkseg>
  </trk>
</gpx>